<- Previous Day | Today | Next Day ->

All Data for 21 November 2020

 

Time A - D Temp A - D Dew Point A - D Humidity A - D Pressure A - D Wind A - D Wind Dir Gust A - D Rain Rate A - D Rain Total
00:00 10.5 7.4 81 1029.2 13.0 SW 13.0 0.0 0.0
00:01 10.5 7.4 81 1029.3 13.0 SW 13.0 0.0 0.0
00:02 10.5 7.4 81 1029.3 13.0 SW 13.0 0.0 0.0
00:03 10.5 7.4 81 1029.4 13.0 SW 13.0 0.0 0.0
00:04 10.5 7.4 81 1029.2 13.0 SW 13.0 0.0 0.0
00:05 10.5 7.4 81 1029.2 13.0 SW 13.0 0.0 0.0
00:06 10.5 7.4 81 1029.1 13.0 SW 13.0 0.0 0.0
00:07 10.5 7.0 79 1029.0 13.0 SW 13.0 0.0 0.0
00:08 10.5 7.0 79 1029.2 13.0 SE 13.0 0.0 0.0
00:09 10.5 7.0 79 1029.2 13.0 SE 13.0 0.0 0.0
00:10 10.5 7.0 79 1029.1 13.0 SE 13.0 0.0 0.0
00:12 10.5 7.0 79 1028.9 13.0 SE 13.0 0.0 0.0
00:13 10.5 7.0 79 1028.9 13.0 SE 13.0 0.0 0.0
00:14 10.5 7.0 79 1028.9 13.0 SE 13.0 0.0 0.0
00:15 10.5 7.0 79 1028.9 13.0 SE 13.0 0.0 0.0
00:16 10.5 7.0 79 1029.1 13.0 SE 13.0 0.0 0.0
00:17 10.5 7.0 79 1029.1 13.0 SE 13.0 0.0 0.0
00:18 10.5 7.0 79 1029.1 13.0 SE 13.0 0.0 0.0
00:19 10.5 7.0 79 1029.0 13.0 SE 13.0 0.0 0.0
00:20 10.5 7.0 79 1028.9 13.0 SE 13.0 0.0 0.0
00:21 10.5 7.0 79 1029.1 13.0 SE 13.0 0.0 0.0
00:22 10.5 7.0 79 1028.8 13.0 SE 13.0 0.0 0.0
00:23 10.4 6.2 75 1029.0 14.5 W 14.5 0.0 0.0
00:24 10.4 6.2 75 1028.9 13.6 W 14.5 0.0 0.0
00:25 10.4 6.2 75 1028.8 13.6 W 14.5 0.0 0.0
00:27 10.4 6.2 75 1028.7 13.6 W 14.5 0.0 0.0
00:28 10.4 6.2 75 1028.7 13.6 W 14.5 0.0 0.0
00:29 10.4 6.2 75 1028.9 16.8 SW 16.8 0.0 0.0
00:30 10.4 6.2 75 1028.6 16.8 SW 16.8 0.0 0.0
00:31 10.4 6.2 75 1028.8 16.8 SW 16.8 0.0 0.0
00:32 10.4 6.2 75 1028.8 16.8 SW 16.8 0.0 0.0
00:33 10.4 6.2 75 1028.6 16.8 SW 16.8 0.0 0.0
00:34 10.4 6.2 75 1028.7 16.8 SW 16.8 0.0 0.0
00:35 10.4 6.2 75 1028.5 15.2 W 16.8 0.0 0.0
00:36 10.4 6.2 75 1028.8 15.2 W 16.8 0.0 0.0
00:37 10.4 6.2 75 1028.6 15.2 W 16.8 0.0 0.0
00:38 10.4 6.2 75 1028.6 15.2 W 16.8 0.0 0.0
00:39 10.4 6.2 75 1028.6 15.2 W 16.8 0.0 0.0
00:41 10.4 6.2 75 1028.4 16.8 SW 16.8 0.0 0.0
00:42 10.4 6.2 75 1028.5 16.8 SW 16.8 0.0 0.0
00:43 10.4 6.2 75 1028.5 16.8 SW 16.8 0.0 0.0
00:44 10.4 6.2 75 1028.4 16.8 SW 16.8 0.0 0.0
00:45 10.4 6.2 75 1028.5 16.8 SW 16.8 0.0 0.0
00:46 10.4 6.2 75 1028.5 16.8 SW 16.8 0.0 0.0
00:47 10.4 6.2 75 1028.4 16.8 SW 16.8 0.0 0.0
00:48 10.4 6.2 75 1028.3 16.8 SW 16.8 0.0 0.0
00:49 10.4 6.2 75 1028.6 16.8 SW 16.8 0.0 0.0
00:50 10.4 6.2 75 1028.4 15.2 SW 16.8 0.0 0.0
00:51 10.4 6.2 75 1028.5 17.4 SW 17.4 0.0 0.0
00:52 10.4 6.2 75 1028.6 17.4 SW 17.4 0.0 0.0
00:53 10.4 6.2 75 1028.5 17.4 SW 17.4 0.0 0.0
00:54 10.4 6.2 75 1028.5 17.4 SW 17.4 0.0 0.0
00:56 10.5 6.3 75 1028.3 13.6 SW 17.4 0.0 0.0
00:57 10.5 6.3 75 1028.4 13.6 SW 17.4 0.0 0.0
00:58 10.5 6.3 75 1028.5 14.5 SW 17.4 0.0 0.0
00:59 10.5 6.3 75 1028.3 12.1 SW 17.4 0.0 0.0
01:00 10.5 6.3 75 1028.4 12.1 SW 17.4 0.0 0.0
01:01 10.5 6.3 75 1028.4 12.1 SW 17.4 0.0 0.0
01:02 10.5 6.3 75 1028.4 12.1 SW 17.4 0.0 0.0
01:03 10.5 6.3 75 1028.4 12.1 SW 17.4 0.0 0.0
01:04 10.5 6.3 75 1028.4 12.1 SW 17.4 0.0 0.0
01:05 10.5 6.3 75 1028.4 12.1 SW 17.4 0.0 0.0
01:06 10.5 6.3 75 1028.5 12.1 SW 14.5 0.0 0.0
01:07 10.5 6.3 75 1028.3 12.1 SW 14.5 0.0 0.0
01:08 10.5 6.3 75 1028.4 12.1 SW 14.5 0.0 0.0
01:09 10.5 6.3 75 1028.5 12.1 SW 12.1 0.0 0.0
01:10 10.6 6.4 75 1028.3 18.3 SW 18.3 0.0 0.0
01:12 10.6 6.4 75 1028.5 13.0 W 18.3 0.0 0.0
01:13 10.6 6.4 75 1028.3 13.0 W 18.3 0.0 0.0
01:14 10.6 6.4 75 1028.5 13.0 W 18.3 0.0 0.0
01:15 10.6 6.2 74 1028.5 15.2 S 18.3 0.0 0.0
01:16 10.6 6.4 75 1028.5 11.4 SW 18.3 0.0 0.0
01:17 10.6 6.4 75 1028.5 11.4 SW 18.3 0.0 0.0
01:18 10.6 6.4 75 1028.4 11.4 SE 18.3 0.0 0.0
01:19 10.6 6.4 75 1028.4 14.5 SW 18.3 0.0 0.0
01:20 10.6 6.4 75 1028.3 14.5 SW 18.3 0.0 0.0
01:21 10.6 6.4 75 1028.2 11.4 SSW 15.2 0.0 0.0
01:22 10.6 6.4 75 1028.3 11.4 SSW 15.2 0.0 0.0
01:23 10.6 6.4 75 1028.5 10.7 SW 15.2 0.0 0.0
01:24 10.6 6.4 75 1028.3 10.7 SW 15.2 0.0 0.0
01:25 10.6 6.5 76 1028.4 13.6 SW 15.2 0.0 0.0
01:27 10.6 6.5 76 1028.3 15.9 S 15.9 0.0 0.0
01:28 10.6 6.5 76 1028.4 12.1 SW 15.9 0.0 0.0
01:29 10.6 6.5 76 1028.4 15.2 SW 15.9 0.0 0.0
01:30 10.6 6.5 76 1028.4 15.2 SW 15.9 0.0 0.0
01:31 10.6 6.5 76 1028.4 15.2 SW 15.9 0.0 0.0
01:32 10.6 6.5 76 1028.4 15.2 SW 15.9 0.0 0.0
01:33 10.6 6.5 76 1028.3 15.9 SW 15.9 0.0 0.0
01:34 10.6 6.5 76 1028.3 15.9 SW 15.9 0.0 0.0
01:35 10.6 6.5 76 1028.3 12.1 SW 15.9 0.0 0.0
01:36 10.6 6.5 76 1028.2 12.1 SW 15.9 0.0 0.0
01:37 10.6 6.5 76 1028.3 12.1 SW 15.9 0.0 0.0
01:38 10.6 6.5 76 1028.1 12.1 SW 15.9 0.0 0.0
01:39 10.6 6.5 76 1028.3 14.5 SW 15.9 0.0 0.0
01:40 10.6 6.5 76 1028.3 14.5 SW 15.9 0.0 0.0
01:42 10.6 6.5 76 1028.4 11.4 W 15.9 0.0 0.0
01:43 10.6 6.5 76 1028.3 11.4 W 15.9 0.0 0.0
01:44 10.7 6.6 76 1028.2 13.6 SW 14.5 0.0 0.0
01:45 10.7 6.6 76 1028.2 13.6 SW 14.5 0.0 0.0
01:46 10.7 6.6 76 1028.1 13.0 SW 14.5 0.0 0.0
01:47 10.7 6.6 76 1028.2 13.0 SW 14.5 0.0 0.0
01:48 10.7 6.6 76 1028.2 13.0 SW 14.5 0.0 0.0
01:49 10.7 6.6 76 1028.2 13.0 SW 14.5 0.0 0.0
01:50 10.7 6.6 76 1028.4 15.2 SW 15.2 0.0 0.0
01:51 10.7 6.6 76 1028.2 15.2 SW 15.2 0.0 0.0
01:52 10.7 6.6 76 1028.4 15.2 SW 15.2 0.0 0.0
01:53 10.7 6.6 76 1028.3 15.2 SW 15.2 0.0 0.0
01:54 10.7 6.6 76 1028.2 16.8 SW 16.8 0.0 0.0
01:56 10.7 6.6 76 1028.2 16.8 SW 16.8 0.0 0.0
01:57 10.7 6.6 76 1028.4 16.8 SW 16.8 0.0 0.0
01:58 10.7 6.5 75 1028.2 15.2 SW 16.8 0.0 0.0
01:59 10.7 6.5 75 1028.3 15.2 SW 16.8 0.0 0.0
02:00 10.7 6.5 75 1028.3 15.2 SW 16.8 0.0 0.0
02:01 10.7 6.5 75 1028.3 15.2 SW 16.8 0.0 0.0
02:02 10.7 6.5 75 1028.3 15.2 SW 16.8 0.0 0.0
02:03 10.7 6.5 75 1028.3 13.0 SW 16.8 0.0 0.0
02:04 10.7 6.5 75 1028.3 13.0 SW 16.8 0.0 0.0
02:05 10.7 6.5 75 1028.3 13.0 SW 16.8 0.0 0.0
02:06 10.7 6.5 75 1028.4 13.0 SW 16.8 0.0 0.0
02:07 10.7 6.5 75 1028.1 13.0 SW 16.8 0.0 0.0
02:08 10.7 6.5 75 1028.2 13.0 SW 15.2 0.0 0.0
02:10 10.7 6.5 75 1028.4 13.0 SW 15.2 0.0 0.0
02:11 10.7 6.5 75 1028.2 13.0 SW 15.2 0.0 0.0
02:12 10.7 6.5 75 1028.2 13.0 SW 15.2 0.0 0.0
02:13 10.7 6.5 75 1028.2 13.0 SW 13.0 0.0 0.0
02:14 10.7 6.5 75 1028.2 13.0 SW 13.0 0.0 0.0
02:15 10.7 6.5 75 1028.2 13.0 SW 13.0 0.0 0.0
02:16 10.7 6.5 75 1028.3 12.1 W 13.0 0.0 0.0
02:17 10.7 6.5 75 1028.3 12.1 W 13.0 0.0 0.0
02:18 10.7 6.5 75 1028.3 12.1 W 13.0 0.0 0.0
02:19 10.7 6.5 75 1028.1 13.0 SW 15.2 0.0 0.0
02:20 10.7 6.5 75 1028.2 12.1 SW 15.2 0.0 0.0
02:21 10.7 6.5 75 1028.2 12.1 W 15.2 0.0 0.0
02:22 10.7 6.5 75 1028.4 12.1 SW 15.2 0.0 0.0
02:24 10.7 6.5 75 1028.2 12.1 SW 15.2 0.0 0.0
02:25 10.7 6.5 75 1028.4 12.1 SW 15.2 0.0 0.0
02:26 10.7 6.5 75 1028.1 12.1 SW 15.2 0.0 0.0
02:27 10.7 6.5 75 1028.2 12.1 SW 15.2 0.0 0.0
02:28 10.7 6.6 76 1028.3 3.8 S 15.2 0.0 0.0
02:29 10.7 6.6 76 1028.3 3.8 S 13.0 0.0 0.0
02:30 10.7 6.6 76 1028.2 3.8 S 12.1 0.0 0.0
02:31 10.7 6.6 76 1028.5 13.0 SW 13.0 0.0 0.0
02:32 10.7 6.6 76 1028.3 13.0 SW 13.0 0.0 0.0
02:33 10.7 6.6 76 1028.3 13.0 SW 13.0 0.0 0.0
02:34 10.7 6.6 76 1028.2 13.0 SW 13.0 0.0 0.0
02:35 10.8 6.7 76 1028.3 13.6 SSW 13.6 0.0 0.0
02:36 10.8 6.7 76 1028.3 13.6 SSW 13.6 0.0 0.0
02:38 10.8 6.7 76 1028.4 13.6 SSW 13.6 0.0 0.0
02:39 10.8 6.7 76 1028.4 13.6 SSW 13.6 0.0 0.0
02:40 10.8 6.7 76 1028.3 13.6 SSW 13.6 0.0 0.0
02:41 10.8 6.7 76 1028.3 13.6 SSW 13.6 0.0 0.0
02:42 10.8 6.7 76 1028.1 13.6 SSW 13.6 0.0 0.0
02:43 10.8 6.7 76 1028.2 13.6 SSW 13.6 0.0 0.0
02:44 10.8 6.7 76 1028.2 13.6 SSW 13.6 0.0 0.0
02:45 10.8 6.7 76 1028.2 13.6 SSW 13.6 0.0 0.0
02:46 10.8 6.7 76 1028.2 13.6 SSW 13.6 0.0 0.0
02:47 10.8 6.7 76 1028.3 13.6 SSW 13.6 0.0 0.0
02:48 10.8 6.7 76 1028.2 13.6 SSW 13.6 0.0 0.0
02:49 10.8 6.7 76 1028.1 13.6 SSW 13.6 0.0 0.0
02:50 10.8 6.7 76 1028.4 13.6 SSW 13.6 0.0 0.0
02:52 10.8 6.7 76 1028.3 13.6 SSW 13.6 0.0 0.0
02:53 10.8 6.7 76 1028.0 13.6 SSW 13.6 0.0 0.0
02:54 10.8 6.7 76 1028.2 13.6 SSW 13.6 0.0 0.0
02:55 10.8 6.7 76 1028.0 13.6 SSW 13.6 0.0 0.0
02:56 10.8 6.7 76 1028.5 13.6 SSW 13.6 0.0 0.0
02:57 10.8 6.7 76 1028.5 13.6 SSW 13.6 0.0 0.0
02:58 10.8 6.7 76 1028.0 13.6 SSW 13.6 0.0 0.0
02:59 10.8 6.7 76 1028.3 13.6 SSW 13.6 0.0 0.0
03:00 10.8 6.7 76 1028.2 13.6 SSW 13.6 0.0 0.0
03:01 10.8 6.7 76 1028.2 13.6 SSW 13.6 0.0 0.0
03:02 10.8 6.7 76 1028.2 13.6 SSW 13.6 0.0 0.0
03:03 10.8 6.7 76 1028.3 13.6 SSW 13.6 0.0 0.0
03:04 10.8 6.7 76 1028.0 13.6 SSW 13.6 0.0 0.0
03:05 10.8 6.7 76 1028.2 13.6 SSW 13.6 0.0 0.0
03:07 10.8 6.7 76 1028.3 13.6 SSW 13.6 0.0 0.0
03:08 10.8 6.7 76 1028.3 13.6 SSW 13.6 0.0 0.0
03:09 10.8 6.7 76 1028.3 13.6 SSW 13.6 0.0 0.0
03:10 10.8 6.7 76 1028.0 13.6 SSW 13.6 0.0 0.0
03:11 10.8 6.7 76 1028.3 13.6 SSW 13.6 0.0 0.0
03:12 10.8 6.7 76 1028.3 13.6 SSW 13.6 0.0 0.0
03:13 10.8 6.7 76 1028.3 13.6 SSW 13.6 0.0 0.0
03:14 10.8 6.7 76 1028.1 13.6 SSW 13.6 0.0 0.0
03:15 10.8 6.7 76 1028.3 13.6 SSW 13.6 0.0 0.0
03:16 10.8 6.7 76 1028.0 13.6 SSW 13.6 0.0 0.0
03:17 10.8 6.7 76 1028.2 13.6 SSW 13.6 0.0 0.0
03:18 10.8 6.7 76 1028.3 13.6 SSW 13.6 0.0 0.0
03:19 10.8 6.7 76 1028.4 13.6 SSW 13.6 0.0 0.0
03:21 10.8 6.7 76 1028.4 13.6 SSW 13.6 0.0 0.0
03:22 10.8 6.4 74 1028.1 14.5 SW 14.5 0.0 0.0
03:23 10.8 6.4 74 1028.4 14.5 SW 14.5 0.0 0.0
03:24 10.8 6.4 74 1028.0 9.8 SW 14.5 0.0 0.0
03:25 10.8 6.4 74 1028.0 9.8 SW 14.5 0.0 0.0
03:26 10.8 6.4 74 1028.0 9.8 SW 14.5 0.0 0.0
03:27 10.7 6.3 74 1028.0 9.2 SW 14.5 0.0 0.0
03:28 10.7 6.3 74 1028.0 8.3 W 14.5 0.0 0.0
03:29 10.7 6.3 74 1028.1 15.2 W 15.2 0.0 0.0
03:30 10.7 6.3 74 1027.9 15.2 W 15.2 0.0 0.0
03:31 10.7 6.3 74 1028.2 15.2 W 15.2 0.0 0.0
03:32 10.7 6.3 74 1027.9 15.2 W 15.2 0.0 0.0
03:34 10.7 6.3 74 1028.2 13.0 S 15.2 0.0 0.0
03:35 10.7 6.3 74 1028.0 13.0 S 15.2 0.0 0.0
03:36 10.7 6.3 74 1027.9 13.0 S 15.2 0.0 0.0
03:37 10.7 6.3 74 1028.1 13.0 S 15.2 0.0 0.0
03:38 10.7 6.3 74 1028.1 13.0 S 15.2 0.0 0.0
03:39 10.7 6.3 74 1028.0 13.0 S 15.2 0.0 0.0
03:40 10.7 6.3 74 1028.0 13.0 S 15.2 0.0 0.0
03:41 10.7 6.3 74 1028.0 17.4 S 17.4 0.0 0.0
03:42 10.7 6.3 74 1028.0 13.6 SSW 17.4 0.0 0.0
03:43 10.8 6.4 74 1027.9 15.9 SW 17.4 0.0 0.0
03:44 10.8 6.4 74 1028.0 17.4 SW 17.4 0.0 0.0
03:45 10.8 6.4 74 1028.1 17.4 SW 17.4 0.0 0.0
03:46 10.8 6.4 74 1027.9 17.4 SW 17.4 0.0 0.0
03:48 10.8 6.4 74 1027.9 17.4 SW 17.4 0.0 0.0
03:49 10.8 6.4 74 1028.0 17.4 SW 17.4 0.0 0.0
03:50 10.8 6.4 74 1027.9 17.4 SW 17.4 0.0 0.0
03:51 10.8 6.4 74 1028.0 17.4 SW 17.4 0.0 0.0
03:52 10.8 6.4 74 1027.7 17.4 SW 17.4 0.0 0.0
03:53 10.8 6.4 74 1027.7 17.4 SW 17.4 0.0 0.0
03:54 10.8 6.4 74 1028.1 17.4 SW 17.4 0.0 0.0
03:55 10.8 6.2 73 1027.9 14.5 N 17.4 0.0 0.0
03:56 10.8 6.2 73 1027.7 14.5 N 17.4 0.0 0.0
03:57 10.8 6.2 73 1027.8 14.5 N 17.4 0.0 0.0
03:58 10.8 6.2 73 1027.8 14.5 N 17.4 0.0 0.0
03:59 10.8 6.2 73 1027.9 14.5 N 17.4 0.0 0.0
04:00 10.8 6.4 74 1027.9 9.2 W 17.4 0.0 0.0
04:01 10.8 6.4 74 1027.7 14.5 SW 17.4 0.0 0.0
04:03 10.8 6.4 74 1028.0 15.2 SW 17.4 0.0 0.0
04:04 10.8 6.4 74 1027.9 15.2 SW 15.2 0.0 0.0
04:05 10.8 6.4 74 1027.9 15.2 SW 15.2 0.0 0.0
04:06 10.8 6.4 74 1027.8 15.2 SW 15.2 0.0 0.0
04:07 10.8 6.4 74 1028.1 15.2 SW 15.2 0.0 0.0
04:08 10.8 6.4 74 1027.8 14.5 SW 15.2 0.0 0.0
04:09 10.8 6.4 74 1027.8 13.6 SW 15.2 0.0 0.0
04:10 10.8 6.4 74 1027.8 13.6 SW 15.2 0.0 0.0
04:11 10.8 6.4 74 1027.9 13.6 SW 15.2 0.0 0.0
04:12 10.8 6.4 74 1027.9 13.6 SW 15.2 0.0 0.0
04:13 10.8 6.4 74 1027.8 13.6 SW 15.2 0.0 0.0
04:14 10.8 6.4 74 1027.8 13.6 SW 15.2 0.0 0.0
04:16 10.8 6.4 74 1027.7 13.6 SW 15.2 0.0 0.0
04:17 10.8 6.4 74 1028.0 13.6 SW 15.2 0.0 0.0
04:18 10.8 6.4 74 1028.0 13.6 SW 13.6 0.0 0.0
04:19 10.8 6.4 74 1028.0 13.6 SW 13.6 0.0 0.0
04:20 10.8 6.4 74 1027.9 13.6 SW 13.6 0.0 0.0
04:21 10.8 6.4 74 1027.9 13.6 SW 13.6 0.0 0.0
04:22 10.8 6.4 74 1027.8 13.6 SW 13.6 0.0 0.0
04:23 10.8 6.4 74 1027.9 13.6 SW 13.6 0.0 0.0
04:24 10.8 6.4 74 1027.7 13.6 SW 13.6 0.0 0.0
04:25 10.8 6.4 74 1027.7 13.6 SW 13.6 0.0 0.0
04:26 10.8 6.4 74 1027.8 13.6 SW 13.6 0.0 0.0
04:27 10.8 6.4 74 1027.7 13.6 SW 13.6 0.0 0.0
04:28 10.8 6.4 74 1027.8 13.6 SW 13.6 0.0 0.0
04:30 10.8 6.4 74 1027.7 13.6 SW 13.6 0.0 0.0
04:31 10.8 6.4 74 1027.7 13.6 SW 13.6 0.0 0.0
04:32 10.8 6.4 74 1027.7 13.6 SW 13.6 0.0 0.0
04:33 10.8 6.4 74 1027.8 13.6 SW 13.6 0.0 0.0
04:34 10.8 6.4 74 1027.6 13.6 SW 13.6 0.0 0.0
04:35 10.8 6.4 74 1027.9 13.6 SW 13.6 0.0 0.0
04:36 10.8 6.4 74 1027.6 13.6 SW 13.6 0.0 0.0
04:37 10.8 6.4 74 1027.8 13.6 SW 13.6 0.0 0.0
04:38 10.8 6.4 74 1027.7 13.6 SW 13.6 0.0 0.0
04:39 10.8 6.4 74 1027.6 13.6 SW 13.6 0.0 0.0
04:40 10.8 6.4 74 1027.6 13.6 SW 13.6 0.0 0.0
04:41 10.8 6.4 74 1027.8 13.6 SW 13.6 0.0 0.0
04:42 10.8 6.4 74 1027.7 13.6 SW 13.6 0.0 0.0
04:44 10.8 6.4 74 1027.6 13.6 SW 13.6 0.0 0.0
04:45 10.8 6.4 74 1027.7 13.6 SW 13.6 0.0 0.0
04:46 10.8 6.4 74 1027.6 13.6 SW 13.6 0.0 0.0
04:47 10.8 6.4 74 1027.5 13.6 SW 13.6 0.0 0.0
04:48 10.8 6.4 74 1027.8 13.6 SW 13.6 0.0 0.0
04:49 10.8 6.4 74 1027.5 13.6 SW 13.6 0.0 0.0
04:50 10.8 6.4 74 1027.5 13.6 SW 13.6 0.0 0.0
04:51 10.8 6.4 74 1027.6 13.6 SW 13.6 0.0 0.0
04:52 10.8 6.4 74 1027.6 15.2 SW 15.2 0.0 0.0
04:53 10.8 6.4 74 1027.5 15.2 SW 15.2 0.0 0.0
04:54 10.8 6.4 74 1027.7 15.2 SW 15.2 0.0 0.0
04:55 10.8 6.4 74 1027.7 15.2 SW 15.2 0.0 0.0
04:56 10.8 6.4 74 1027.7 15.2 SW 15.2 0.0 0.0
04:57 10.8 6.4 74 1027.5 15.2 SW 15.2 0.0 0.0
04:59 10.8 6.4 74 1027.6 15.2 SW 15.2 0.0 0.0
05:00 10.8 6.4 74 1027.7 15.2 SW 15.2 0.0 0.0
05:01 10.8 6.4 74 1027.4 15.2 SW 15.2 0.0 0.0
05:02 10.8 6.4 74 1027.6 15.2 SW 15.2 0.0 0.0
05:03 10.8 6.4 74 1027.6 15.2 SW 15.2 0.0 0.0
05:04 10.8 6.4 74 1027.6 15.2 SW 15.2 0.0 0.0
05:05 10.8 6.4 74 1027.6 15.2 SW 15.2 0.0 0.0
05:06 10.8 6.4 74 1027.6 15.2 SW 15.2 0.0 0.0
05:07 10.8 6.4 74 1027.6 15.2 SW 15.2 0.0 0.0
05:08 10.8 6.4 74 1027.5 15.2 SW 15.2 0.0 0.0
05:09 10.8 6.4 74 1027.6 15.2 SW 15.2 0.0 0.0
05:10 10.8 6.4 74 1027.5 15.2 SW 15.2 0.0 0.0
05:11 10.8 6.4 74 1027.6 15.2 SW 15.2 0.0 0.0
05:13 10.7 6.3 74 1027.5 9.2 S 15.2 0.0 0.0
05:14 10.7 6.3 74 1027.5 9.2 S 15.2 0.0 0.0
05:15 10.7 6.3 74 1027.3 9.2 S 15.2 0.0 0.0
05:16 10.7 6.3 74 1027.5 9.2 S 15.2 0.0 0.0
05:17 10.7 6.3 74 1027.5 9.2 S 15.2 0.0 0.0
05:18 10.7 6.3 74 1027.5 9.2 S 9.2 0.0 0.0
05:19 10.7 6.3 74 1027.6 9.2 S 9.2 0.0 0.0
05:20 10.7 6.3 74 1027.3 9.2 S 9.2 0.0 0.0
05:21 10.7 6.3 74 1027.5 9.2 S 9.2 0.0 0.0
05:22 10.7 6.3 74 1027.5 9.2 S 9.2 0.0 0.0
05:23 10.7 6.3 74 1027.6 9.2 S 9.2 0.0 0.0
05:24 10.7 6.3 74 1027.5 9.2 S 9.2 0.0 0.0
05:25 10.7 6.3 74 1027.8 9.2 S 9.2 0.0 0.0
05:27 10.7 6.3 74 1027.5 9.2 S 9.2 0.0 0.0
05:28 10.7 6.1 73 1027.5 12.1 W 12.1 0.0 0.0
05:29 10.7 6.1 73 1027.6 11.4 W 12.1 0.0 0.0
05:30 10.7 6.1 73 1027.2 11.4 W 12.1 0.0 0.0
05:31 10.7 6.1 73 1027.6 11.4 W 12.1 0.0 0.0
05:32 10.8 6.2 73 1027.8 10.7 SW 12.1 0.0 0.0
05:33 10.8 6.2 73 1027.6 10.7 SW 12.1 0.0 0.0
05:34 10.8 6.2 73 1027.4 10.7 SW 12.1 0.0 0.0
05:35 10.8 6.2 73 1027.6 10.7 SW 12.1 0.0 0.0
05:36 10.8 6.2 73 1027.6 10.7 SW 12.1 0.0 0.0
05:37 10.8 6.2 73 1027.6 10.7 SW 12.1 0.0 0.0
05:38 10.8 6.2 73 1027.4 10.7 SW 12.1 0.0 0.0
05:39 10.8 6.2 73 1027.5 10.7 SW 11.4 0.0 0.0
05:41 10.8 6.2 73 1027.5 7.6 SW 10.7 0.0 0.0
05:42 10.8 6.2 73 1027.5 7.6 SW 10.7 0.0 0.0
05:43 10.8 6.2 73 1027.7 7.6 SW 10.7 0.0 0.0
05:44 10.8 6.2 73 1027.6 7.6 SW 10.7 0.0 0.0
05:45 10.8 6.2 73 1027.4 7.6 SW 10.7 0.0 0.0
05:46 10.8 6.2 73 1027.4 7.6 SW 10.7 0.0 0.0
05:47 10.8 6.2 73 1027.6 13.0 W 13.0 0.0 0.0
05:48 10.8 6.2 73 1027.3 13.0 W 13.0 0.0 0.0
05:49 10.8 6.2 73 1027.7 13.0 SW 13.0 0.0 0.0
05:50 10.8 6.2 73 1027.5 13.0 SW 13.0 0.0 0.0
05:51 10.8 6.2 73 1027.6 11.4 S 13.0 0.0 0.0
05:52 10.8 6.2 73 1027.7 9.8 SW 13.0 0.0 0.0
05:53 10.8 6.2 73 1027.7 9.8 SW 13.0 0.0 0.0
05:55 10.8 6.2 73 1027.6 9.8 SW 13.0 0.0 0.0
05:56 10.8 6.2 73 1027.5 9.8 SW 13.0 0.0 0.0
05:57 10.8 6.2 73 1027.5 9.8 SW 13.0 0.0 0.0
05:58 10.8 6.2 73 1027.5 9.8 SW 13.0 0.0 0.0
05:59 10.8 6.4 74 1027.7 14.5 NW 14.5 0.0 0.0
06:00 10.8 6.4 74 1027.5 14.5 NW 14.5 0.0 0.0
06:01 10.8 6.4 74 1027.4 14.5 NW 14.5 0.0 0.0
06:02 10.8 6.4 74 1027.5 14.5 NW 14.5 0.0 0.0
06:03 10.8 6.4 74 1027.6 14.5 NW 14.5 0.0 0.0
06:04 10.8 6.4 74 1027.7 14.5 NW 14.5 0.0 0.0
06:05 10.8 6.4 74 1027.5 14.5 NW 14.5 0.0 0.0
06:06 10.8 6.4 74 1027.5 14.5 NW 14.5 0.0 0.0
06:07 10.8 6.2 73 1027.5 18.3 S 18.3 0.0 0.0
06:09 10.8 6.2 73 1027.6 18.3 S 18.3 0.0 0.0
06:10 10.8 6.2 73 1027.5 18.3 S 18.3 0.0 0.0
06:11 10.8 6.2 73 1027.6 18.3 S 18.3 0.0 0.0
06:12 10.8 6.2 73 1027.7 18.3 S 18.3 0.0 0.0
06:13 10.8 6.2 73 1027.5 18.3 S 18.3 0.0 0.0
06:14 10.8 6.2 73 1027.5 18.3 S 18.3 0.0 0.0
06:15 10.8 6.2 73 1027.7 18.3 S 18.3 0.0 0.0
06:16 10.8 6.2 73 1027.4 18.3 S 18.3 0.0 0.0
06:17 10.9 6.3 73 1027.7 13.6 W 18.3 0.0 0.0
06:18 10.9 6.3 73 1027.3 13.6 W 18.3 0.0 0.0
06:19 10.9 6.3 73 1027.5 13.6 W 18.3 0.0 0.0
06:20 10.9 6.3 73 1027.7 13.6 W 18.3 0.0 0.0
06:21 10.9 6.3 73 1027.3 13.6 W 18.3 0.0 0.0
06:23 10.9 6.3 73 1027.3 13.6 W 18.3 0.0 0.0
06:24 10.9 6.3 73 1027.4 13.6 W 18.3 0.0 0.0
06:25 10.9 6.3 73 1027.4 13.6 W 18.3 0.0 0.0
06:26 10.9 6.3 73 1027.4 13.6 W 13.6 0.0 0.0
06:27 10.9 6.3 73 1027.4 15.2 SW 15.2 0.0 0.0
06:28 10.9 6.3 73 1027.4 15.2 SW 15.2 0.0 0.0
06:29 10.9 6.3 73 1027.4 15.2 SW 15.2 0.0 0.0
06:30 10.9 6.3 73 1027.4 15.2 SW 15.2 0.0 0.0
06:31 10.9 6.3 73 1027.5 15.2 SW 15.2 0.0 0.0
06:32 10.9 6.3 73 1027.3 15.2 SW 15.2 0.0 0.0
06:33 10.9 6.3 73 1027.0 15.2 SW 15.2 0.0 0.0
06:34 10.9 6.3 73 1027.4 15.2 SW 15.2 0.0 0.0
06:35 10.9 6.3 73 1027.3 15.2 SW 15.2 0.0 0.0
06:37 10.9 6.3 73 1027.1 9.8 SSW 15.2 0.0 0.0
06:38 10.9 6.3 73 1027.5 9.8 SSW 15.2 0.0 0.0
06:39 10.9 6.3 73 1027.4 9.8 SSW 15.2 0.0 0.0
06:40 10.9 6.3 73 1027.3 9.8 SSW 15.2 0.0 0.0
06:41 10.9 6.3 73 1027.4 9.8 SSW 15.2 0.0 0.0
06:42 10.9 6.3 73 1027.4 9.8 SSW 15.2 0.0 0.0
06:43 10.9 6.3 73 1027.2 9.8 SSW 15.2 0.0 0.0
06:44 10.9 6.3 73 1027.2 9.8 SSW 15.2 0.0 0.0
06:45 10.9 6.3 73 1027.3 9.8 SSW 15.2 0.0 0.0
06:46 10.9 6.3 73 1027.3 9.8 SSW 15.2 0.0 0.0
06:47 10.9 6.3 73 1027.3 9.8 SSW 9.8 0.0 0.0
06:48 10.9 6.3 73 1027.5 9.8 SSW 9.8 0.0 0.0
06:49 10.9 6.3 73 1027.4 9.8 SSW 9.8 0.0 0.0
06:51 10.9 6.3 73 1027.3 9.8 SSW 9.8 0.0 0.0
06:52 10.9 6.3 73 1027.3 9.8 SSW 9.8 0.0 0.0
06:53 10.9 6.5 74 1027.4 8.3 W 9.8 0.0 0.0
06:54 10.9 6.5 74 1027.4 8.3 W 9.8 0.0 0.0
06:55 10.9 6.5 74 1027.3 8.3 W 9.8 0.0 0.0
06:56 10.9 6.5 74 1027.3 8.3 W 9.8 0.0 0.0
06:57 10.9 6.5 74 1027.3 8.3 W 9.8 0.0 0.0
06:58 10.9 6.5 74 1027.3 8.3 W 8.3 0.0 0.0
06:59 10.9 6.5 74 1027.5 14.5 SW 14.5 0.0 0.0
07:00 10.9 6.5 74 1027.5 14.5 SW 14.5 0.0 0.0
07:01 10.9 6.5 74 1027.3 14.5 SW 14.5 0.0 0.0
07:02 10.9 6.5 74 1027.5 14.5 SW 14.5 0.0 0.0
07:04 10.9 6.5 74 1027.4 14.5 SW 14.5 0.0 0.0
07:05 10.9 6.5 74 1027.2 14.5 SW 14.5 0.0 0.0
07:06 10.9 6.5 74 1027.4 14.5 SW 14.5 0.0 0.0
07:07 10.9 6.5 74 1027.6 14.5 SW 14.5 0.0 0.0
07:08 10.9 6.5 74 1027.6 14.5 SW 14.5 0.0 0.0
07:09 10.9 6.5 74 1027.4 14.5 SW 14.5 0.0 0.0
07:10 10.9 6.5 74 1027.4 14.5 SW 14.5 0.0 0.0
07:11 10.9 6.5 74 1027.5 14.5 SW 14.5 0.0 0.0
07:12 10.9 6.5 74 1027.2 14.5 SW 14.5 0.0 0.0
07:13 10.9 6.5 74 1027.6 14.5 SW 14.5 0.0 0.0
07:14 10.9 6.5 74 1027.3 14.5 SW 14.5 0.0 0.0
07:15 10.9 6.5 74 1027.3 11.4 W 14.5 0.0 0.0
07:16 10.9 6.5 74 1027.2 11.4 W 14.5 0.0 0.0
07:17 10.9 6.5 74 1027.3 11.4 W 14.5 0.0 0.0
07:19 10.9 6.5 74 1027.4 20.6 SW 20.6 0.0 0.0
07:20 10.9 6.5 74 1027.4 14.5 SW 20.6 0.0 0.0
07:21 10.9 6.5 74 1027.6 14.5 SW 20.6 0.0 0.0
07:22 10.9 6.5 74 1027.6 14.5 SW 20.6 0.0 0.0
07:23 10.9 6.5 74 1027.4 14.5 SW 20.6 0.0 0.0
07:24 10.9 6.5 74 1027.5 14.5 SW 20.6 0.0 0.0
07:25 10.9 6.5 74 1027.4 14.5 SW 20.6 0.0 0.0
07:26 10.9 6.5 74 1027.3 14.5 SW 20.6 0.0 0.0
07:27 10.9 6.5 74 1027.4 14.5 SW 20.6 0.0 0.0
07:28 10.9 6.5 74 1027.5 14.5 SW 20.6 0.0 0.0
07:29 10.9 6.5 74 1027.4 14.5 SW 20.6 0.0 0.0
07:30 10.9 6.5 74 1027.5 14.5 SW 20.6 0.0 0.0
07:31 10.9 6.5 74 1027.5 14.5 SW 14.5 0.0 0.0
07:33 10.9 6.5 74 1027.4 14.5 SW 14.5 0.0 0.0
07:34 10.9 6.5 74 1027.3 14.5 SW 14.5 0.0 0.0
07:35 10.9 6.5 74 1027.3 14.5 SW 14.5 0.0 0.0
07:36 10.9 6.5 74 1027.3 14.5 SW 14.5 0.0 0.0
07:37 10.9 6.5 74 1027.4 14.5 SW 14.5 0.0 0.0
07:38 10.9 6.5 74 1027.4 14.5 SW 14.5 0.0 0.0
07:39 10.9 6.5 74 1027.4 14.5 SW 14.5 0.0 0.0
07:40 10.9 6.5 74 1027.5 14.5 SW 14.5 0.0 0.0
07:41 10.9 6.5 74 1027.3 14.5 SW 14.5 0.0 0.0
07:42 10.8 6.2 73 1027.5 11.4 SW 11.4 0.0 0.0
07:43 10.8 6.2 73 1027.4 11.4 SW 11.4 0.0 0.0
07:44 10.8 6.2 73 1027.4 11.4 SW 11.4 0.0 0.0
07:45 10.9 6.3 73 1027.4 13.6 W 13.6 0.0 0.0
07:47 10.9 6.3 73 1027.5 13.6 W 13.6 0.0 0.0
07:48 10.9 6.3 73 1027.4 13.6 W 13.6 0.0 0.0
07:49 10.9 6.3 73 1027.4 13.6 W 13.6 0.0 0.0
07:50 10.9 6.3 73 1027.4 13.6 W 13.6 0.0 0.0
07:51 10.9 6.3 73 1027.4 13.6 W 13.6 0.0 0.0
07:52 10.9 6.3 73 1027.5 13.6 W 13.6 0.0 0.0
07:53 10.9 6.3 73 1027.5 13.6 W 13.6 0.0 0.0
07:54 10.9 6.3 73 1027.3 13.6 W 13.6 0.0 0.0
07:55 10.9 6.3 73 1027.2 13.6 SW 13.6 0.0 0.0
07:56 10.9 6.3 73 1027.4 13.6 SW 13.6 0.0 0.0
07:57 10.9 6.3 73 1027.3 13.6 SW 13.6 0.0 0.0
07:58 10.9 6.3 73 1027.5 13.6 SW 13.6 0.0 0.0
07:59 10.9 6.3 73 1027.4 13.6 SW 13.6 0.0 0.0
08:01 10.9 6.3 73 1027.3 13.6 SW 13.6 0.0 0.0
08:02 10.9 6.3 73 1027.5 13.6 SW 13.6 0.0 0.0
08:03 10.9 6.3 73 1027.3 13.6 SW 13.6 0.0 0.0
08:04 10.9 6.3 73 1027.5 13.6 SW 13.6 0.0 0.0
08:05 10.9 6.3 73 1027.4 13.6 SW 13.6 0.0 0.0
08:06 10.9 6.3 73 1027.4 13.6 SW 13.6 0.0 0.0
08:07 10.9 6.3 73 1027.4 13.6 SW 13.6 0.0 0.0
08:08 10.9 6.3 73 1027.4 13.6 SW 13.6 0.0 0.0
08:09 10.9 6.3 73 1027.5 13.6 SW 13.6 0.0 0.0
08:10 10.9 6.3 73 1027.3 13.6 SW 13.6 0.0 0.0
08:11 10.9 6.3 73 1027.3 13.6 SW 13.6 0.0 0.0
08:12 10.9 6.3 73 1027.5 13.6 SW 13.6 0.0 0.0
08:14 11.0 6.3 73 1027.4 18.3 S 18.3 0.8 0.1
08:15 11.0 6.3 73 1027.4 18.3 S 18.3 0.8 0.1
08:16 11.0 6.3 73 1027.4 12.1 SW 18.3 0.8 0.1
08:17 11.0 6.3 73 1027.4 12.1 SW 18.3 0.8 0.1
08:18 11.0 6.3 73 1027.5 12.1 SW 18.3 0.8 0.1
08:19 11.0 6.3 73 1027.5 12.1 SW 18.3 0.0 0.1
08:20 11.0 6.3 73 1027.7 12.1 SW 18.3 0.0 0.1
08:21 11.0 6.3 73 1027.5 12.1 SW 18.3 0.0 0.1
08:22 11.0 6.3 73 1027.6 12.1 SW 18.3 0.0 0.1
08:23 11.0 6.3 73 1027.5 12.1 SW 18.3 0.0 0.1
08:24 10.9 6.3 73 1027.4 8.3 SW 18.3 0.0 0.1
08:25 10.9 6.3 73 1027.3 8.3 SW 18.3 0.0 0.1
08:26 10.9 6.3 73 1027.5 8.3 SW 18.3 0.0 0.1
08:27 10.9 6.3 73 1027.4 12.1 SW 12.1 0.0 0.1
08:29 10.9 6.3 73 1027.4 13.0 SW 13.0 0.0 0.1
08:30 10.9 6.3 73 1027.4 13.0 SW 13.0 0.0 0.1
08:31 10.9 6.3 73 1027.4 13.0 SW 13.0 0.0 0.1
08:32 11.0 6.3 73 1027.6 14.5 W 14.5 0.0 0.1
08:33 11.0 6.3 73 1027.4 14.5 W 14.5 0.0 0.1
08:34 11.0 6.3 73 1027.4 14.5 W 14.5 0.0 0.1
08:35 11.0 6.3 73 1027.3 14.5 W 14.5 0.0 0.1
08:36 11.0 6.3 73 1027.5 14.5 W 14.5 0.0 0.1
08:37 11.0 6.3 73 1027.5 14.5 W 14.5 0.0 0.1
08:38 11.0 6.3 73 1027.5 14.5 W 14.5 0.0 0.1
08:39 11.0 6.3 73 1027.2 9.8 W 14.5 0.0 0.1
08:40 11.0 6.3 73 1027.4 9.8 W 14.5 0.0 0.1
08:41 11.0 6.3 73 1027.4 9.8 W 14.5 0.0 0.1
08:43 11.0 6.3 73 1027.3 9.8 W 14.5 0.0 0.1
08:44 11.0 6.3 73 1027.5 9.8 W 14.5 0.0 0.1
08:45 11.0 6.3 73 1027.5 9.8 W 14.5 0.0 0.1
08:46 11.0 6.3 73 1027.4 9.8 W 14.5 0.0 0.1
08:47 11.0 6.3 73 1027.5 10.7 S 14.5 0.0 0.1
08:48 11.0 6.3 73 1027.3 10.7 S 10.7 0.0 0.1
08:49 11.0 6.3 73 1027.4 10.7 S 10.7 0.0 0.1
08:50 11.0 6.3 73 1027.2 10.7 S 10.7 0.0 0.1
08:51 11.0 6.5 74 1027.4 13.0 SSW 13.0 0.0 0.1
08:52 11.0 6.5 74 1027.6 13.0 SSW 13.0 0.0 0.1
08:53 11.0 6.5 74 1027.5 13.0 SSW 13.0 0.0 0.1
08:54 11.0 6.5 74 1027.3 13.0 SSW 13.0 0.0 0.1
08:55 11.0 6.5 74 1027.4 12.1 WSW 13.0 0.0 0.1
08:57 11.0 6.5 74 1027.4 15.2 SW 15.2 0.0 0.1
08:58 11.0 6.5 74 1027.5 15.2 SW 15.2 0.0 0.1
08:59 11.0 6.7 75 1027.4 14.5 SW 15.2 0.0 0.1
09:00 11.0 6.7 75 1027.6 14.5 SW 15.2 0.0 0.1
09:01 11.0 6.7 75 1027.6 14.5 SW 15.2 0.0 0.1
09:02 11.0 6.7 75 1027.6 14.5 SW 15.2 0.0 0.1
09:03 11.0 6.7 75 1027.7 14.5 SW 15.2 0.0 0.1
09:04 11.0 6.7 75 1027.6 14.5 SW 15.2 0.0 0.1
09:05 11.0 6.7 75 1027.7 14.5 SW 15.2 0.0 0.1
09:06 11.0 6.7 75 1027.6 14.5 SW 15.2 0.0 0.1
09:07 11.0 6.7 75 1027.7 16.8 W 16.8 0.0 0.1
09:08 11.0 6.7 75 1027.4 16.8 W 16.8 0.0 0.1
09:09 11.0 6.7 75 1027.4 16.8 W 16.8 0.0 0.1
09:10 11.0 6.7 75 1027.6 16.8 W 16.8 0.0 0.1
09:11 11.0 6.7 75 1027.7 16.8 W 16.8 0.0 0.1
09:12 11.0 6.7 75 1027.3 16.8 W 16.8 0.0 0.1
09:14 11.0 6.7 75 1027.5 16.8 W 16.8 0.0 0.1
09:15 11.0 6.7 75 1027.6 16.8 W 16.8 0.0 0.1
09:16 11.0 6.7 75 1027.6 16.8 W 16.8 0.0 0.1
09:17 11.0 6.7 75 1027.5 16.8 W 16.8 0.0 0.1
09:18 11.0 6.7 75 1027.6 16.8 W 16.8 0.0 0.1
09:19 11.0 6.7 75 1027.7 16.8 W 16.8 0.0 0.1
09:20 11.0 6.7 75 1027.6 16.8 W 16.8 0.0 0.1
09:21 11.0 6.7 75 1027.9 16.8 W 16.8 0.0 0.1
09:22 11.0 6.7 75 1027.7 16.8 W 16.8 0.0 0.1
09:23 11.0 6.7 75 1027.6 16.8 W 16.8 0.0 0.1
09:24 11.0 6.7 75 1027.6 16.8 W 16.8 0.0 0.1
09:25 11.0 6.7 75 1027.5 16.8 W 16.8 0.0 0.1
09:26 11.0 6.7 75 1027.7 16.8 W 16.8 0.0 0.1
09:28 11.0 6.7 75 1027.6 16.8 W 16.8 0.0 0.1
09:29 11.0 6.7 75 1027.6 16.8 W 16.8 0.0 0.1
09:30 11.0 6.7 75 1027.6 16.8 W 16.8 0.0 0.1
09:31 11.0 6.7 75 1027.5 16.8 W 16.8 0.0 0.1
09:32 11.0 6.7 75 1027.6 16.8 W 16.8 0.0 0.1
09:33 11.0 6.7 75 1027.6 16.8 W 16.8 0.0 0.1
09:34 11.0 6.7 75 1027.7 16.8 W 16.8 0.0 0.1
09:35 11.0 6.7 75 1027.5 16.8 W 16.8 0.0 0.1
09:36 11.0 6.7 75 1027.5 16.8 W 16.8 0.0 0.1
09:37 11.0 6.7 75 1027.5 16.8 W 16.8 0.0 0.1
09:38 11.0 6.7 75 1027.6 16.8 W 16.8 0.0 0.1
09:39 11.0 6.7 75 1027.6 16.8 W 16.8 0.0 0.1
09:40 11.0 6.7 75 1027.6 16.8 W 16.8 0.0 0.1
09:42 11.0 6.7 75 1027.8 16.8 W 16.8 0.0 0.1
09:43 11.0 6.7 75 1027.7 16.8 W 16.8 0.0 0.1
09:44 11.0 6.7 75 1027.6 16.8 W 16.8 0.0 0.1
09:45 11.0 6.7 75 1027.5 16.8 W 16.8 0.0 0.1
09:46 11.0 6.7 75 1027.6 16.8 W 16.8 0.0 0.1
09:47 11.0 6.7 75 1027.7 16.8 W 16.8 0.0 0.1
09:48 11.0 6.7 75 1027.9 16.8 W 16.8 0.0 0.1
09:49 11.0 6.7 75 1027.6 16.8 W 16.8 0.0 0.1
09:50 11.0 6.7 75 1027.9 16.8 W 16.8 0.0 0.1
09:51 11.0 6.7 75 1027.9 16.8 W 16.8 0.0 0.1
09:52 11.0 6.7 75 1027.6 16.8 W 16.8 0.0 0.1
09:53 11.0 6.7 75 1027.7 16.8 W 16.8 0.0 0.1
09:54 11.0 6.7 75 1027.7 16.8 W 16.8 0.0 0.1
09:56 11.0 6.7 75 1027.9 16.8 W 16.8 0.0 0.1
09:57 11.0 6.7 75 1027.7 16.8 W 16.8 0.0 0.1
09:58 11.0 6.7 75 1027.9 16.8 W 16.8 0.0 0.1
09:59 11.0 6.7 75 1027.9 16.8 W 16.8 0.0 0.1
10:00 11.0 6.7 75 1028.0 16.8 W 16.8 0.0 0.1
10:01 11.0 6.7 75 1028.0 16.8 W 16.8 0.0 0.1
10:02 11.0 6.7 75 1027.8 16.8 W 16.8 0.0 0.1
10:03 11.0 6.7 75 1028.0 16.8 W 16.8 0.0 0.1
10:04 11.0 6.7 75 1027.9 16.8 W 16.8 0.0 0.1
10:05 11.0 6.7 75 1028.0 16.8 W 16.8 0.0 0.1
10:06 11.0 6.7 75 1028.2 16.8 W 16.8 0.0 0.1
10:07 11.0 6.7 75 1027.8 16.8 W 16.8 0.0 0.1
10:08 11.0 6.7 75 1028.0 16.8 W 16.8 0.0 0.1
10:09 11.0 6.7 75 1028.1 16.8 W 16.8 0.0 0.1
10:11 11.0 6.7 75 1027.9 16.8 W 16.8 0.0 0.1
10:12 11.0 6.7 75 1027.8 16.8 W 16.8 0.0 0.1
10:13 11.0 6.7 75 1027.9 16.8 W 16.8 0.0 0.1
10:14 11.0 6.7 75 1027.8 16.8 W 16.8 0.0 0.1
10:15 11.0 6.7 75 1028.1 16.8 W 16.8 0.0 0.1
10:16 11.0 6.7 75 1027.9 16.8 W 16.8 0.0 0.1
10:17 11.0 6.7 75 1028.0 16.8 W 16.8 0.0 0.1
10:18 11.0 6.7 75 1027.8 16.8 W 16.8 0.0 0.1
10:19 11.0 6.7 75 1027.8 16.8 W 16.8 0.0 0.1
10:20 11.0 6.7 75 1028.0 16.8 W 16.8 0.0 0.1
10:21 11.0 6.7 75 1027.8 16.8 W 16.8 0.0 0.1
10:22 11.0 6.7 75 1027.9 16.8 W 16.8 0.0 0.1
10:24 11.0 6.7 75 1027.9 16.8 W 16.8 0.0 0.1
10:25 11.0 6.7 75 1028.1 16.8 W 16.8 0.0 0.1
10:26 11.0 6.7 75 1027.9 16.8 W 16.8 0.0 0.1
10:27 11.0 6.7 75 1028.0 16.8 W 16.8 0.0 0.1
10:28 11.0 6.7 75 1027.9 16.8 W 16.8 0.0 0.1
10:29 11.0 6.7 75 1027.8 16.8 W 16.8 0.0 0.1
10:30 11.0 6.7 75 1027.8 16.8 W 16.8 0.0 0.1
10:31 11.2 7.5 78 1027.9 12.1 SW 12.1 0.0 0.1
10:32 11.2 7.5 78 1028.0 12.1 SW 12.1 0.0 0.1
10:33 11.2 7.5 78 1028.0 12.1 SW 12.1 0.0 0.1
10:34 11.2 7.5 78 1028.0 12.1 SW 12.1 0.0 0.1
10:35 11.2 7.5 78 1028.0 12.1 SW 12.1 0.0 0.1
10:36 11.2 7.5 78 1027.9 12.1 SW 12.1 0.0 0.1
10:37 11.2 7.5 78 1028.1 12.1 SW 12.1 0.0 0.1
10:39 11.2 7.5 78 1027.9 12.1 SW 12.1 0.0 0.1
10:40 11.2 7.5 78 1027.8 12.1 SW 12.1 0.0 0.1
10:41 11.2 7.5 78 1028.0 12.1 SW 12.1 0.0 0.1
10:42 11.2 7.5 78 1027.9 12.1 SW 12.1 0.0 0.1
10:43 11.2 7.5 78 1027.8 12.1 SW 12.1 0.0 0.1
10:44 11.2 7.5 78 1028.0 12.1 SW 12.1 0.0 0.1
10:45 11.2 7.5 78 1028.1 12.1 SW 12.1 0.0 0.1
10:46 11.2 7.5 78 1028.0 12.1 SW 12.1 0.0 0.1
10:47 11.2 7.5 78 1028.0 12.1 SW 12.1 0.0 0.1
10:48 11.2 7.5 78 1027.9 12.1 SW 12.1 0.0 0.1
10:49 11.2 7.5 78 1027.9 12.1 SW 12.1 0.0 0.1
10:50 11.2 7.5 78 1027.9 12.1 SW 12.1 0.0 0.1
10:51 11.2 7.5 78 1028.0 12.1 SW 12.1 0.0 0.1
10:53 11.2 7.5 78 1027.8 12.1 SW 12.1 0.0 0.1
10:54 11.2 7.5 78 1028.1 12.1 SW 12.1 0.0 0.1
10:55 11.2 7.5 78 1027.9 12.1 SW 12.1 0.0 0.1
10:56 11.2 7.5 78 1027.8 12.1 SW 12.1 0.0 0.1
10:57 11.2 7.5 78 1028.0 12.1 SW 12.1 0.0 0.1
10:58 11.2 7.5 78 1028.0 12.1 SW 12.1 0.0 0.1
10:59 11.2 7.5 78 1027.8 12.1 SW 12.1 0.0 0.1
11:00 11.2 7.5 78 1027.8 12.1 SW 12.1 0.0 0.1
11:01 11.2 7.5 78 1027.7 12.1 SW 12.1 0.0 0.1
11:02 11.2 7.5 78 1027.8 12.1 SW 12.1 0.0 0.1
11:03 11.2 7.5 78 1027.9 12.1 SW 12.1 0.0 0.1
11:04 11.2 7.5 78 1028.0 12.1 SW 12.1 0.0 0.1
11:05 11.2 7.5 78 1027.8 12.1 SW 12.1 0.0 0.1
11:07 11.2 7.5 78 1027.9 12.1 SW 12.1 0.0 0.1
11:08 11.2 7.5 78 1027.7 12.1 SW 12.1 0.0 0.1
11:09 11.2 7.5 78 1027.9 12.1 SW 12.1 0.0 0.1
11:10 11.1 7.8 80 1027.8 10.7 SW 10.7 0.0 0.1
11:11 11.1 7.8 80 1027.9 10.7 SW 10.7 0.0 0.1
11:12 11.1 7.8 80 1027.9 10.7 SW 10.7 0.0 0.1
11:13 11.1 7.8 80 1027.7 10.7 SW 10.7 0.0 0.1
11:14 11.1 7.8 80 1027.7 10.7 SW 10.7 0.0 0.1
11:15 11.1 7.8 80 1028.0 10.7 SW 10.7 0.0 0.1
11:16 11.1 7.8 80 1027.7 10.7 SW 10.7 0.0 0.1
11:17 11.1 7.8 80 1027.8 10.7 SW 10.7 0.0 0.1
11:18 11.1 7.8 80 1027.7 14.5 SW 14.5 0.0 0.1
11:19 11.1 7.8 80 1027.9 11.4 SW 14.5 0.0 0.1
11:20 11.1 7.8 80 1027.8 11.4 SW 14.5 0.0 0.1
11:21 11.1 7.8 80 1027.8 11.4 SW 14.5 0.0 0.1
11:23 11.0 7.9 81 1028.0 13.6 SW 14.5 0.0 0.1
11:24 11.0 7.9 81 1027.7 13.0 SW 14.5 0.0 0.1
11:25 11.0 7.9 81 1028.0 13.0 SW 14.5 0.0 0.1
11:26 11.0 7.9 81 1027.8 14.5 W 14.5 0.0 0.1
11:27 11.0 7.9 81 1027.8 14.5 SW 14.5 0.0 0.1
11:28 11.0 7.9 81 1027.8 14.5 SW 14.5 0.0 0.1
11:29 11.0 7.9 81 1027.8 16.8 SW 16.8 0.0 0.1
11:30 10.9 7.8 81 1027.8 13.0 W 16.8 0.0 0.1
11:31 10.9 7.8 81 1027.9 13.0 SW 16.8 0.0 0.1
11:32 10.9 7.8 81 1027.7 12.1 SW 16.8 0.0 0.1
11:33 10.9 7.8 81 1027.6 12.1 W 16.8 0.0 0.1
11:34 10.9 7.8 81 1027.4 14.5 SW 16.8 0.0 0.1
11:35 10.9 7.8 81 1027.7 15.9 SW 16.8 0.0 0.1
11:37 10.9 7.8 81 1027.6 18.3 SW 18.3 0.0 0.1
11:38 10.9 8.0 82 1027.5 15.9 S 18.3 0.0 0.1
11:39 10.8 7.9 82 1027.6 14.5 SW 18.3 0.0 0.1
11:40 10.8 7.9 82 1027.4 15.2 SW 18.3 0.0 0.1
11:41 10.8 7.9 82 1027.6 13.6 SW 18.3 0.0 0.1
11:42 10.8 7.9 82 1027.6 13.6 SW 18.3 0.0 0.1
11:43 10.8 7.9 82 1027.6 16.8 SW 18.3 0.0 0.1
11:44 10.8 7.9 82 1027.4 14.5 SW 18.3 0.0 0.1
11:45 10.8 7.9 82 1027.5 13.0 SW 18.3 0.0 0.1
11:46 10.8 7.9 82 1027.5 13.0 SW 18.3 0.0 0.1
11:47 10.8 7.9 82 1027.5 15.2 SW 18.3 0.0 0.1
11:48 10.8 7.9 82 1027.3 12.1 SW 16.8 0.0 0.1
11:49 10.8 7.9 82 1027.5 12.1 SW 16.8 0.0 0.1
11:51 10.8 7.9 82 1027.4 10.7 SW 16.8 0.0 0.1
11:52 10.8 7.9 82 1027.2 14.5 SW 16.8 0.0 0.1
11:53 10.8 7.9 82 1027.4 14.5 S 15.2 0.0 0.1
11:54 10.8 7.9 82 1027.4 11.4 W 15.2 0.0 0.1
11:55 10.8 7.9 82 1027.5 13.0 SW 15.2 0.0 0.1
11:56 10.8 8.0 83 1027.4 14.5 NNE 15.2 0.0 0.1
11:57 10.8 8.0 83 1027.3 13.0 SW 15.2 0.0 0.1
11:58 10.8 8.0 83 1027.4 11.4 SW 14.5 0.0 0.1
11:59 10.8 8.0 83 1027.3 12.1 S 14.5 0.0 0.1
12:00 10.8 8.0 83 1027.4 8.3 SW 14.5 0.0 0.1
12:01 10.8 8.0 83 1027.5 11.4 SW 14.5 0.0 0.1
12:02 10.8 8.0 83 1027.0 12.1 SW 14.5 0.0 0.1
12:03 10.8 8.0 83 1027.5 14.5 WSW 14.5 0.0 0.1
12:05 10.8 8.0 83 1027.4 14.5 S 14.5 0.0 0.1
12:06 10.8 8.0 83 1027.2 15.9 SW 15.9 0.0 0.1
12:07 10.8 8.0 83 1027.5 13.0 SW 16.8 0.0 0.1
12:09 10.8 8.0 83 1027.5 14.5 SW 16.8 0.0 0.1
12:10 10.8 8.0 83 1027.2 14.5 SW 16.8 0.0 0.1
12:11 10.8 8.0 83 1027.3 11.4 SW 16.8 0.0 0.1
12:12 10.8 8.0 83 1027.4 14.5 SW 16.8 0.0 0.1
12:13 10.8 8.0 83 1027.2 15.2 SW 16.8 0.0 0.1
12:14 10.8 8.0 83 1027.2 15.2 SW 16.8 0.0 0.1
12:15 10.8 8.0 83 1027.3 11.4 SW 16.8 0.0 0.1
12:16 10.8 8.0 83 1027.1 9.2 SW 16.8 0.0 0.1
12:17 10.8 8.0 83 1027.2 12.1 SW 15.2 0.0 0.1
12:18 10.8 8.0 83 1027.3 13.0 SW 15.2 0.0 0.1
12:19 10.8 8.0 83 1027.1 9.8 SW 15.2 0.0 0.1
12:20 10.8 8.0 83 1027.0 9.2 SW 15.2 0.0 0.1
12:21 10.8 8.0 83 1027.3 9.8 SW 15.2 0.0 0.1
12:23 10.8 8.0 83 1027.1 19.0 SW 19.0 0.0 0.1
12:24 10.8 8.0 83 1027.2 12.1 SW 19.0 0.0 0.1
12:25 10.8 8.0 83 1027.3 13.0 SW 19.0 0.0 0.1
12:26 10.8 8.0 83 1027.1 11.4 SW 19.0 0.0 0.1
12:27 10.8 8.0 83 1027.1 14.5 SW 19.0 0.0 0.1
12:28 10.8 8.0 83 1027.2 15.9 SW 19.0 0.0 0.1
12:29 10.8 8.0 83 1027.2 13.0 W 19.0 0.0 0.1
12:30 10.8 8.0 83 1027.0 13.0 SW 19.0 0.0 0.1
12:31 10.8 8.0 83 1027.0 13.6 SW 19.0 0.0 0.1
12:32 10.8 8.0 83 1027.1 11.4 SW 19.0 0.0 0.1
12:33 10.9 8.3 84 1027.2 13.6 SSW 19.0 0.0 0.1
12:34 10.9 8.3 84 1027.3 13.6 SW 19.0 0.0 0.1
12:35 10.8 8.2 84 1027.1 15.9 S 15.9 0.0 0.1
12:37 10.8 8.2 84 1026.9 14.5 SW 15.9 0.0 0.1
12:38 10.8 8.2 84 1026.9 14.5 SW 15.9 0.0 0.1
12:39 10.8 8.2 84 1027.2 9.2 W 15.9 0.0 0.1
12:40 10.9 8.3 84 1027.1 12.1 SW 15.9 0.0 0.1
12:41 10.9 8.3 84 1027.0 13.0 SSW 15.9 0.0 0.1
12:42 10.9 8.3 84 1027.0 13.0 SSW 15.9 0.0 0.1
12:43 10.9 8.3 84 1027.1 13.6 SW 15.9 0.0 0.1
12:44 10.9 8.3 84 1027.0 13.0 SW 15.9 0.0 0.1
12:45 10.9 8.3 84 1026.9 13.0 SW 15.9 0.0 0.1
12:46 10.9 8.3 84 1026.8 13.0 S 15.9 0.0 0.1
12:47 10.9 8.3 84 1026.8 11.4 SW 14.5 0.0 0.1
12:48 10.9 8.3 84 1027.0 11.4 W 14.5 0.0 0.1
12:49 10.9 8.3 84 1027.0 13.6 SW 13.6 0.0 0.1
12:51 10.9 8.3 84 1027.0 16.8 SW 16.8 0.0 0.1
12:52 10.9 8.3 84 1026.8 13.6 S 16.8 0.0 0.1
12:53 10.9 8.3 84 1026.9 10.7 SW 16.8 0.0 0.1
12:54 10.8 8.2 84 1026.8 12.1 SW 16.8 0.0 0.1
12:55 10.8 8.2 84 1027.0 13.6 SW 16.8 0.0 0.1
12:56 10.8 8.2 84 1027.0 13.6 SW 16.8 0.0 0.1
12:57 10.8 8.2 84 1026.8 12.1 SW 16.8 0.0 0.1
12:58 10.8 8.2 84 1026.8 10.7 SW 16.8 0.0 0.1
12:59 10.8 8.2 84 1026.7 10.7 SW 16.8 0.0 0.1
13:00 10.8 8.2 84 1026.9 12.1 SW 16.8 0.0 0.1
13:01 10.8 8.2 84 1026.5 12.1 SW 16.8 0.0 0.1
13:02 10.8 8.2 84 1026.8 12.1 SW 13.6 0.0 0.1
13:03 10.8 8.2 84 1026.9 12.1 SW 13.6 0.0 0.1
13:05 10.8 8.2 84 1026.7 12.1 SW 13.6 0.0 0.1
13:06 10.8 8.2 84 1026.8 12.1 SW 12.1 0.0 0.1
13:07 10.8 8.2 84 1027.0 12.1 SW 12.1 0.0 0.1
13:08 10.8 8.2 84 1026.7 12.1 SW 12.1 0.0 0.1
13:09 10.8 8.2 84 1026.8 9.8 SW 12.1 0.0 0.1
13:10 10.8 8.2 84 1026.8 9.8 SW 12.1 0.0 0.1
13:11 10.8 8.2 84 1026.8 10.7 SW 12.1 0.0 0.1
13:12 10.8 8.2 84 1026.6 9.8 SSW 12.1 0.0 0.1
13:13 10.8 8.2 84 1026.8 10.7 SW 12.1 0.0 0.1
13:14 10.8 8.2 84 1026.7 12.1 W 12.1 0.0 0.1
13:15 10.8 8.2 84 1026.8 13.0 SW 13.0 0.0 0.1
13:16 10.8 8.2 84 1026.5 15.2 W 15.2 0.0 0.1
13:17 10.8 8.2 84 1026.5 15.2 W 15.2 0.0 0.1
13:18 10.8 8.2 84 1026.8 15.9 S 15.9 0.0 0.1
13:19 10.8 8.2 84 1026.7 13.6 SW 15.9 0.0 0.1
13:20 10.8 8.2 84 1026.9 13.6 SW 15.9 0.0 0.1
13:21 10.8 8.2 84 1026.8 10.7 W 15.9 0.0 0.1
13:22 10.8 8.2 84 1026.6 10.7 SW 15.9 0.0 0.1
13:23 10.8 8.4 85 1026.5 10.7 SW 15.9 0.0 0.1
13:24 10.8 8.4 85 1026.6 10.7 SSW 15.9 0.0 0.1
13:26 10.8 8.4 85 1026.6 9.8 S 15.9 0.0 0.1
13:27 10.8 8.4 85 1026.6 11.4 W 15.9 0.0 0.1
13:28 10.8 8.4 85 1026.8 14.5 W 16.8 0.0 0.1
13:29 10.8 8.4 85 1026.4 13.6 SW 16.8 0.0 0.1
13:30 10.8 8.4 85 1026.7 13.6 SW 16.8 0.0 0.1
13:31 10.8 8.4 85 1026.6 13.6 SW 16.8 0.0 0.1
13:32 10.8 8.4 85 1026.5 13.6 SW 16.8 0.0 0.1
13:33 10.8 8.4 85 1026.6 12.1 SW 16.8 0.0 0.1
13:34 10.8 8.4 85 1026.6 16.8 SW 16.8 0.0 0.1
13:35 10.8 8.4 85 1026.6 17.4 SW 17.4 0.0 0.1
13:36 10.8 8.4 85 1026.6 12.1 SW 17.4 0.0 0.1
13:37 10.8 8.4 85 1026.7 13.6 W 17.4 0.0 0.1
13:38 10.8 8.4 85 1026.6 12.1 SW 17.4 0.0 0.1
13:40 10.8 8.4 85 1026.7 13.0 SW 17.4 0.0 0.1
13:41 10.8 8.4 85 1026.3 14.5 SW 17.4 0.0 0.1
13:42 10.8 8.4 85 1026.6 14.5 SW 17.4 0.0 0.1
13:43 10.8 8.4 85 1026.6 11.4 NNW 17.4 0.0 0.1
13:44 10.8 8.4 85 1026.5 12.1 W 17.4 0.0 0.1
13:45 10.8 8.4 85 1026.5 12.1 W 17.4 0.0 0.1
13:46 10.8 8.4 85 1026.7 13.0 S 14.5 0.0 0.1
13:47 10.8 8.4 85 1026.6 10.7 SW 14.5 0.0 0.1
13:48 10.8 8.4 85 1026.4 13.6 S 14.5 0.0 0.1
13:49 10.8 8.4 85 1026.7 13.6 SW 14.5 0.0 0.1
13:50 10.8 8.4 85 1026.6 13.6 SW 14.5 0.0 0.1
13:51 10.8 8.4 85 1026.6 13.6 SW 14.5 0.0 0.1
13:52 10.8 8.4 85 1026.4 13.6 SW 14.5 0.0 0.1
13:54 10.8 8.4 85 1026.6 12.1 SW 14.5 0.0 0.1
13:55 10.8 8.4 85 1026.4 11.4 SW 14.5 0.0 0.1
13:56 10.8 8.4 85 1026.5 12.1 SW 14.5 0.0 0.1
13:57 10.8 8.4 85 1026.6 9.8 W 14.5 0.0 0.1
13:58 10.8 8.4 85 1026.4 9.8 W 14.5 0.0 0.1
13:59 10.8 8.4 85 1026.5 11.4 SW 14.5 0.0 0.1
14:00 10.8 8.4 85 1026.5 9.8 SW 14.5 0.0 0.1
14:01 10.8 8.4 85 1026.3 10.7 W 14.5 0.0 0.1
14:02 10.8 8.4 85 1026.6 10.7 W 14.5 0.0 0.1
14:03 10.8 8.4 85 1026.3 12.1 SW 13.6 0.8 0.1
14:04 10.8 8.4 85 1026.5 12.1 SW 12.1 0.8 0.1
14:05 10.8 8.4 85 1026.2 13.6 W 13.6 0.8 0.1
14:06 10.8 8.4 85 1026.4 12.1 W 13.6 0.8 0.1
14:08 10.8 8.4 85 1026.4 15.2 SW 16.8 0.0 0.1
14:09 10.8 8.4 85 1026.4 13.6 S 16.8 0.0 0.1
14:10 10.8 8.4 85 1026.2 15.9 SW 16.8 0.0 0.1
14:11 10.8 8.4 85 1026.3 15.9 SW 16.8 0.0 0.1
14:12 10.7 8.3 85 1026.1 15.9 SW 19.7 0.0 0.1
14:13 10.7 8.3 85 1026.1 15.9 SW 19.7 0.0 0.1
14:14 10.7 8.3 85 1026.3 13.0 SW 19.7 0.0 0.1
14:15 10.7 8.3 85 1026.3 16.8 SW 19.7 0.0 0.1
14:16 10.7 8.3 85 1026.4 12.1 W 19.7 0.0 0.1
14:17 10.7 8.3 85 1026.4 13.0 S 19.7 0.0 0.1
14:18 10.7 8.3 85 1026.2 14.5 SW 19.7 0.0 0.1
14:19 10.7 8.3 85 1026.4 13.0 SW 19.7 0.0 0.1
14:20 10.7 8.3 85 1026.3 12.1 S 19.7 0.0 0.1
14:22 10.7 8.3 85 1026.2 12.1 SW 16.8 0.0 0.1
14:23 10.7 8.3 85 1026.3 13.6 SW 16.8 0.0 0.1
14:24 10.7 8.3 85 1026.2 13.0 SW 16.8 0.0 0.1
14:25 10.7 8.3 85 1026.4 13.0 SW 14.5 0.0 0.1
14:26 10.7 8.3 85 1026.3 13.6 SW 14.5 0.0 0.1
14:27 10.7 8.3 85 1026.2 14.5 W 14.5 0.0 0.1
14:28 10.7 8.3 85 1026.3 18.3 SW 18.3 0.0 0.1
14:29 10.7 8.3 85 1026.1 12.1 SW 18.3 0.0 0.1
14:30 10.7 8.3 85 1026.3 11.4 SW 18.3 0.0 0.1
14:31 10.7 8.3 85 1026.3 13.0 SW 18.3 0.0 0.1
14:32 10.7 8.3 85 1026.2 13.0 SW 18.3 0.0 0.1
14:33 10.7 8.3 85 1026.4 13.0 SW 18.3 0.0 0.1
14:34 10.7 8.3 85 1026.3 11.4 S 18.3 0.0 0.1
14:36 10.7 8.3 85 1026.3 12.1 SW 18.3 0.0 0.1
14:37 10.7 8.3 85 1026.4 9.8 S 18.3 0.0 0.1
14:38 10.7 8.3 85 1026.1 15.2 SW 15.2 0.0 0.1
14:39 10.7 8.3 85 1026.3 11.4 SW 15.2 0.0 0.1
14:40 10.7 8.3 85 1026.2 13.6 SW 15.2 0.0 0.1
14:41 10.7 8.3 85 1026.1 13.6 W 15.2 0.0 0.1
14:42 10.7 8.3 85 1026.1 13.6 W 15.2 0.0 0.1
14:43 10.7 8.3 85 1026.2 12.1 SW 16.8 0.0 0.1
14:44 10.7 8.3 85 1026.3 11.4 SSW 16.8 0.0 0.1
14:45 10.7 8.3 85 1025.9 11.4 SW 16.8 0.0 0.1
14:46 10.7 8.3 85 1026.2 11.4 SW 16.8 0.0 0.1
14:47 10.7 8.5 86 1026.1 9.2 SW 16.8 0.0 0.1
14:48 10.7 8.5 86 1026.1 13.6 SW 16.8 0.0 0.1
14:49 10.7 8.5 86 1026.1 14.5 W 16.8 0.0 0.1
14:51 10.7 8.5 86 1026.1 13.0 SW 16.8 0.0 0.1
14:52 10.7 8.5 86 1025.9 10.7 SSW 16.8 0.0 0.1
14:53 10.7 8.5 86 1026.1 11.4 SW 14.5 0.0 0.1
14:54 10.7 8.5 86 1026.3 13.0 S 14.5 0.0 0.1
14:55 10.7 8.5 86 1026.1 14.5 SW 14.5 0.0 0.1
14:56 10.7 8.5 86 1026.0 10.7 SW 14.5 0.0 0.1
14:57 10.7 8.5 86 1026.0 9.8 SW 14.5 0.0 0.1
14:58 10.7 8.5 86 1026.1 15.2 S 15.2 0.0 0.1
14:59 10.7 8.5 86 1026.2 13.6 W 15.2 0.0 0.1
15:00 10.7 8.5 86 1026.1 17.4 SW 17.4 0.0 0.1
15:01 10.7 8.5 86 1026.1 17.4 SW 17.4 0.0 0.1
15:02 10.7 8.5 86 1026.0 17.4 SW 17.4 0.0 0.1
15:04 10.7 8.5 86 1026.1 17.4 SW 17.4 0.0 0.1
15:05 10.7 8.5 86 1026.2 18.3 SW 18.3 0.0 0.2
15:06 10.7 8.5 86 1026.1 12.1 S 18.3 0.8 0.2
15:07 10.7 8.5 86 1026.1 11.4 SW 18.3 0.8 0.2
15:08 10.7 8.5 86 1026.2 14.5 SW 18.3 0.8 0.2
15:09 10.7 8.5 86 1026.2 14.5 SW 18.3 0.8 0.2
15:10 10.7 8.5 86 1026.2 14.5 SW 18.3 0.8 0.2
15:11 10.7 8.5 86 1026.3 14.5 S 18.3 0.0 0.2
15:12 10.7 8.5 86 1026.2 13.6 SW 18.3 0.0 0.2
15:13 10.7 8.5 86 1025.9 13.6 W 18.3 0.0 0.2
15:14 10.7 8.5 86 1026.2 13.0 W 18.3 0.0 0.2
15:15 10.7 8.5 86 1026.2 14.5 SW 18.3 0.0 0.2
15:16 10.7 8.5 86 1026.1 13.6 SW 17.4 0.0 0.2
15:17 10.7 8.5 86 1026.2 15.9 SW 17.4 0.0 0.2
15:18 10.7 8.5 86 1026.2 15.9 SW 17.4 0.0 0.2
15:19 10.7 8.5 86 1026.2 13.0 S 17.4 0.0 0.2
15:20 10.7 8.5 86 1026.2 11.4 SW 17.4 0.0 0.2
15:21 10.7 8.5 86 1026.1 11.4 SW 15.9 0.0 0.2
15:22 10.7 8.5 86 1026.0 9.8 SW 15.9 0.0 0.2
15:23 10.7 8.5 86 1026.1 12.1 WNW 15.9 0.0 0.2
15:25 10.7 8.5 86 1026.2 11.4 SW 15.9 0.0 0.2
15:26 10.7 8.5 86 1026.1 13.0 SW 15.9 0.0 0.2
15:27 10.7 8.5 86 1026.3 12.1 S 15.9 0.0 0.2
15:28 10.7 8.5 86 1026.2 13.0 SW 14.5 0.0 0.2
15:29 10.7 8.5 86 1026.2 10.7 SSW 14.5 0.0 0.2
15:30 10.7 8.5 86 1026.2 10.7 SSW 14.5 0.0 0.2
15:31 10.7 8.5 86 1026.2 11.4 SW 14.5 0.0 0.2
15:32 10.7 8.5 86 1026.2 12.1 SW 14.5 0.0 0.2
15:33 10.7 8.5 86 1026.1 12.1 W 14.5 0.0 0.2
15:34 10.7 8.5 86 1026.0 12.1 SSW 14.5 0.0 0.2
15:35 10.7 8.5 86 1026.1 9.2 S 14.5 0.0 0.2
15:36 10.7 8.5 86 1026.2 11.4 SW 13.0 0.0 0.2
15:37 10.7 8.5 86 1026.1 12.1 SW 15.2 0.0 0.2
15:39 10.7 8.5 86 1026.2 15.2 SSW 16.8 0.0 0.2
15:40 10.7 8.5 86 1026.0 13.6 SW 16.8 0.0 0.2
15:41 10.7 8.5 86 1026.1 13.0 SW 16.8 0.0 0.2
15:42 10.7 8.5 86 1026.1 13.0 SW 16.8 0.0 0.2
15:43 10.7 8.5 86 1026.1 15.2 S 16.8 0.0 0.2
15:44 10.7 8.5 86 1026.2 15.2 S 16.8 0.0 0.2
15:45 10.7 8.5 86 1026.1 10.7 SW 16.8 0.0 0.2
15:46 10.7 8.5 86 1026.3 13.6 S 16.8 0.0 0.2
15:47 10.7 8.5 86 1026.2 12.1 SW 16.8 0.0 0.2
15:48 10.7 8.5 86 1026.2 9.8 SW 16.8 0.0 0.2
15:49 10.7 8.5 86 1026.1 11.4 W 15.2 0.0 0.2
15:50 10.7 8.5 86 1026.0 17.4 W 17.4 0.0 0.2
15:51 10.7 8.5 86 1026.2 15.2 SW 17.4 0.0 0.2
15:53 10.7 8.5 86 1026.2 16.8 SW 17.4 0.8 0.3
15:54 10.7 8.5 86 1026.1 15.2 SSW 17.4 0.8 0.3
15:55 10.7 8.5 86 1026.3 15.2 SSW 17.4 0.8 0.3
15:56 10.7 8.5 86 1026.3 10.7 SW 17.4 0.8 0.3
15:57 10.7 8.5 86 1026.1 11.4 W 17.4 0.0 0.3
15:58 10.7 8.5 86 1026.1 11.4 W 17.4 0.0 0.3
15:59 10.7 8.5 86 1026.3 11.4 SW 17.4 0.0 0.3
16:00 10.7 8.5 86 1026.3 12.1 SW 17.4 0.0 0.3
16:01 10.7 8.5 86 1026.3 12.1 SW 17.4 0.0 0.3
16:02 10.7 8.5 86 1026.5 12.1 SW 17.4 0.0 0.3
16:03 10.7 8.5 86 1026.0 12.1 SW 16.8 0.0 0.3
16:04 10.7 8.5 86 1026.2 12.1 SW 15.2 0.0 0.3
16:05 10.7 8.5 86 1026.2 12.1 SW 15.2 0.0 0.3
16:07 10.7 8.5 86 1026.2 12.1 SW 13.6 0.0 0.3
16:08 10.7 8.5 86 1026.3 10.7 WSW 13.6 0.0 0.3
16:09 10.7 8.5 86 1026.2 10.7 WSW 13.6 0.0 0.3
16:10 10.7 8.5 86 1026.3 13.0 SW 13.6 0.0 0.3
16:11 10.7 8.5 86 1026.3 13.0 W 13.6 0.0 0.3
16:12 10.7 8.5 86 1026.2 10.7 W 13.6 0.0 0.3
16:13 10.7 8.5 86 1026.3 12.1 SW 13.6 0.0 0.3
16:14 10.7 8.5 86 1026.1 12.1 SW 13.6 0.0 0.3
16:15 10.7 8.5 86 1026.2 13.0 SW 13.6 0.0 0.3
16:16 10.7 8.5 86 1026.2 13.0 SW 13.6 0.0 0.3
16:17 10.7 8.5 86 1026.4 13.0 SW 13.0 0.0 0.3
16:18 10.7 8.5 86 1026.3 10.7 SW 13.0 0.0 0.3
16:19 10.7 8.5 86 1026.3 10.7 S 13.0 0.0 0.3
16:21 10.7 8.5 86 1026.2 15.2 SW 17.4 0.0 0.3
16:22 10.7 8.5 86 1026.3 13.0 SW 17.4 0.0 0.3
16:23 10.7 8.5 86 1026.6 9.8 SW 17.4 0.0 0.3
16:24 10.7 8.5 86 1026.2 9.8 SW 17.4 0.0 0.3
16:25 10.7 8.5 86 1026.4 13.6 SW 17.4 0.0 0.3
16:26 10.7 8.5 86 1026.4 13.6 SW 17.4 0.0 0.3
16:27 10.7 8.5 86 1026.4 13.0 SW 17.4 0.0 0.3
16:28 10.7 8.5 86 1026.3 13.0 SW 17.4 0.0 0.3
16:29 10.7 8.5 86 1026.5 13.0 W 17.4 0.0 0.3
16:30 10.7 8.5 86 1026.6 11.4 SW 17.4 0.0 0.3
16:31 10.7 8.5 86 1026.4 13.6 SW 15.2 0.0 0.3
16:32 10.7 8.5 86 1026.5 11.4 SW 13.6 0.0 0.3
16:33 10.7 8.5 86 1026.5 13.0 SW 13.6 0.0 0.3
16:35 10.7 8.5 86 1026.4 12.1 SW 13.6 0.0 0.3
16:36 10.7 8.5 86 1026.4 11.4 SW 13.6 0.0 0.3
16:37 10.7 8.5 86 1026.5 9.8 S 13.6 0.0 0.3
16:38 10.7 8.5 86 1026.6 12.1 SW 13.6 0.0 0.3
16:39 10.7 8.5 86 1026.3 12.1 SW 13.6 0.0 0.3
16:40 10.7 8.5 86 1026.6 9.8 S 13.6 0.0 0.3
16:41 10.7 8.5 86 1026.5 9.8 S 13.6 0.0 0.3
16:42 10.7 8.5 86 1026.4 11.4 SW 13.0 0.0 0.3
16:43 10.7 8.6 87 1026.4 12.1 SW 14.5 0.0 0.3
16:44 10.7 8.6 87 1026.5 12.1 WSW 14.5 0.0 0.3
16:45 10.7 8.6 87 1026.5 11.4 SW 14.5 0.0 0.3
16:46 10.7 8.6 87 1026.4 13.0 SW 14.5 0.0 0.3
16:47 10.7 8.6 87 1026.4 9.8 SW 14.5 0.0 0.3
16:48 10.7 8.6 87 1026.4 11.4 SW 14.5 0.0 0.3
16:50 10.7 8.6 87 1026.5 9.8 SW 14.5 0.0 0.3
16:51 10.7 8.6 87 1026.6 13.6 SW 14.5 0.0 0.3
16:52 10.7 8.6 87 1026.4 10.7 SW 14.5 0.0 0.3
16:53 10.7 8.6 87 1026.5 12.1 NW 13.6 0.0 0.3
16:54 10.7 8.6 87 1026.4 12.1 W 13.6 0.0 0.3
16:55 10.7 8.6 87 1026.4 12.1 W 13.6 0.0 0.3
16:56 10.7 8.6 87 1026.6 11.4 SW 13.6 0.8 0.3
16:57 10.7 8.6 87 1026.1 13.6 SW 13.6 0.8 0.3
16:58 10.7 8.6 87 1026.4 15.9 SW 15.9 0.8 0.3
16:59 10.7 8.6 87 1026.5 13.0 S 15.9 0.8 0.3
17:00 10.7 8.6 87 1026.4 13.0 SW 15.9 0.8 0.3
17:01 10.7 8.6 87 1026.6 13.0 SW 15.9 0.0 0.3
17:02 10.7 8.6 87 1026.6 13.0 SW 15.9 0.0 0.3
17:04 10.7 8.6 87 1026.4 13.0 SW 15.9 0.0 0.3
17:05 10.7 8.6 87 1026.4 13.0 SW 15.9 0.0 0.3
17:06 10.7 8.6 87 1026.6 12.1 S 15.9 0.0 0.3
17:07 10.7 8.6 87 1026.5 11.4 SW 15.9 0.0 0.3
17:08 10.7 8.6 87 1026.5 13.6 SW 15.2 0.0 0.3
17:09 10.7 8.6 87 1026.5 13.6 SW 15.2 0.0 0.3
17:10 10.7 8.6 87 1026.3 12.1 SW 15.2 0.0 0.3
17:11 10.7 8.6 87 1026.6 18.3 SW 18.3 0.0 0.3
17:12 10.7 8.6 87 1026.4 14.5 SW 18.3 0.0 0.3
17:13 10.7 8.6 87 1026.3 14.5 SW 18.3 0.0 0.3
17:14 10.7 8.6 87 1026.6 15.2 SW 18.3 0.0 0.3
17:15 10.7 8.6 87 1026.3 11.4 SSW 18.3 0.0 0.3
17:16 10.7 8.6 87 1026.5 13.0 SW 18.3 0.0 0.3
17:17 10.7 8.6 87 1026.5 13.0 SW 18.3 0.0 0.3
17:18 10.7 8.6 87 1026.3 14.5 W 18.3 0.0 0.3
17:19 10.7 8.6 87 1026.5 12.1 SW 18.3 0.0 0.3
17:20 10.7 8.6 87 1026.5 11.4 SW 18.3 0.0 0.3
17:21 10.7 8.6 87 1026.5 15.2 SW 18.3 0.0 0.3
17:22 10.7 8.6 87 1026.5 15.2 SW 15.2 0.0 0.3
17:23 10.7 8.6 87 1026.6 12.1 SW 15.2 0.0 0.3
17:24 10.7 8.6 87 1026.4 10.7 S 15.2 0.0 0.3
17:27 10.7 8.6 87 1026.4 11.4 SW 19.0 0.8 0.4
17:28 10.7 8.6 87 1026.4 12.1 SW 19.0 0.8 0.4
17:29 10.7 8.6 87 1026.3 13.0 W 19.0 0.8 0.4
17:30 10.7 8.6 87 1026.4 13.6 S 19.0 0.8 0.4
17:31 10.7 8.6 87 1026.4 12.1 SW 19.0 0.0 0.4
17:32 10.7 8.6 87 1026.3 13.6 S 19.0 0.0 0.4
17:33 10.7 8.6 87 1026.5 12.1 SW 19.0 0.0 0.4
17:34 10.7 8.6 87 1026.4 15.9 SW 19.0 0.0 0.4
17:35 10.7 8.6 87 1026.5 15.9 SW 19.0 0.0 0.4
17:36 10.7 8.6 87 1026.4 12.1 SW 15.9 0.0 0.4
17:37 10.7 8.6 87 1026.2 10.7 SW 15.9 0.0 0.4
17:38 10.7 8.6 87 1026.3 13.6 SW 15.9 0.0 0.4
17:39 10.6 8.5 87 1026.3 12.1 WSW 15.9 0.0 0.4
17:41 10.6 8.5 87 1026.3 13.6 SW 15.9 0.0 0.4
17:42 10.6 8.5 87 1026.3 14.5 SW 15.9 0.0 0.4
17:43 10.6 8.5 87 1026.2 11.4 SSE 15.9 0.0 0.4
17:44 10.6 8.5 87 1026.2 11.4 SW 15.9 0.0 0.4
17:45 10.6 8.5 87 1026.2 12.1 SW 14.5 0.0 0.4
17:46 10.6 8.5 87 1026.2 12.1 SW 14.5 0.0 0.4
17:47 10.6 8.5 87 1026.2 11.4 SW 14.5 0.0 0.4
17:48 10.6 8.5 87 1026.3 13.0 SW 14.5 0.0 0.4
17:49 10.6 8.5 87 1026.1 13.0 SW 14.5 0.0 0.4
17:50 10.6 8.5 87 1026.2 13.6 SW 14.5 0.0 0.4
17:51 10.6 8.5 87 1026.2 15.2 SW 15.2 0.0 0.4
17:52 10.6 8.5 87 1026.2 16.8 SW 16.8 0.0 0.4
17:53 10.6 8.5 87 1026.4 11.4 SW 16.8 0.0 0.4
17:55 10.7 8.6 87 1026.2 9.8 SW 16.8 0.0 0.4
17:56 10.7 8.6 87 1026.3 11.4 SSW 16.8 0.0 0.4
17:57 10.7 8.6 87 1026.3 11.4 S 16.8 0.0 0.4
17:58 10.7 8.6 87 1026.4 12.1 SW 16.8 0.0 0.4
17:59 10.7 8.6 87 1026.4 13.6 S 16.8 0.0 0.4
18:00 10.7 8.6 87 1026.4 13.6 W 16.8 0.0 0.4
18:01 10.7 8.6 87 1026.3 14.5 SW 16.8 0.0 0.4
18:02 10.7 8.6 87 1026.3 13.0 SW 16.8 0.0 0.4
18:03 10.7 8.6 87 1026.4 10.7 SW 14.5 0.0 0.4
18:04 10.7 8.6 87 1026.3 15.2 SW 15.2 0.0 0.4
18:05 10.7 8.6 87 1026.4 15.2 SW 15.2 0.0 0.4
18:06 10.7 8.6 87 1026.3 14.5 SW 15.2 0.0 0.4
18:07 10.7 8.6 87 1026.1 15.2 SW 16.8 0.0 0.4
18:09 10.6 8.5 87 1026.4 13.0 W 18.3 0.0 0.4
18:10 10.6 8.5 87 1026.3 14.5 SW 18.3 0.0 0.4
18:11 10.6 8.5 87 1026.3 15.2 S 18.3 0.0 0.4
18:12 10.6 8.5 87 1026.3 15.2 S 18.3 0.0 0.4
18:13 10.6 8.5 87 1026.5 14.5 SW 18.3 0.0 0.4
18:14 10.6 8.5 87 1026.5 14.5 SW 18.3 0.0 0.4
18:15 10.6 8.5 87 1026.6 14.5 SW 18.3 0.0 0.4
18:16 10.5 8.4 87 1026.4 11.4 S 18.3 0.0 0.4
18:17 10.5 8.4 87 1026.3 13.0 SW 18.3 0.0 0.4
18:18 10.4 8.3 87 1026.5 13.0 SW 18.3 0.0 0.4
18:19 10.4 8.3 87 1026.3 13.0 SW 15.2 0.0 0.4
18:20 10.4 8.3 87 1026.5 12.1 S 15.2 0.0 0.4
18:21 10.4 8.3 87 1026.3 9.8 W 15.2 0.0 0.4
18:23 10.4 8.3 87 1026.3 15.9 SW 15.9 0.0 0.4
18:24 10.4 8.3 87 1026.6 10.7 SW 15.9 0.0 0.4
18:25 10.4 8.3 87 1026.5 9.8 SW 15.9 0.0 0.4
18:26 10.4 8.3 87 1026.1 9.8 SW 15.9 0.0 0.4
18:27 10.4 8.3 87 1026.4 11.4 SW 15.9 0.0 0.4
18:28 10.4 8.3 87 1026.3 10.7 SW 15.9 0.0 0.4
18:29 10.4 8.3 87 1026.5 15.9 SW 15.9 0.0 0.4
18:30 10.4 8.3 87 1026.4 15.9 SSW 15.9 0.0 0.4
18:31 10.4 8.3 87 1026.2 13.0 SW 15.9 0.0 0.4
18:32 10.4 8.3 87 1026.2 10.7 SW 15.9 0.0 0.4
18:33 10.4 8.3 87 1026.2 13.6 SW 15.9 0.0 0.4
18:34 10.4 8.3 87 1026.2 11.4 SW 15.9 0.0 0.4
18:35 10.4 8.3 87 1026.3 12.1 SW 15.9 0.0 0.4
18:37 10.4 8.3 87 1026.4 9.8 SW 15.9 0.0 0.4
18:38 10.4 8.3 87 1026.4 9.2 SW 15.9 0.0 0.4
18:39 10.4 8.3 87 1026.5 14.5 SW 15.9 0.0 0.4
18:40 10.4 8.3 87 1026.4 12.1 W 14.5 0.0 0.4
18:41 10.4 8.3 87 1026.5 13.0 SW 14.5 0.0 0.4
18:42 10.4 8.3 87 1026.5 13.0 SW 14.5 0.0 0.4
18:43 10.4 8.3 87 1026.5 10.7 W 14.5 0.0 0.4
18:44 10.4 8.3 87 1026.4 12.1 S 14.5 0.0 0.4
18:45 10.4 8.3 87 1026.5 11.4 WSW 14.5 0.0 0.4
18:46 10.4 8.3 87 1026.5 13.0 SW 14.5 0.0 0.4
18:47 10.4 8.3 87 1026.6 13.0 SW 14.5 0.0 0.4
18:48 10.4 8.3 87 1026.5 13.0 SW 14.5 0.0 0.4
18:49 10.4 8.3 87 1026.6 12.1 SW 14.5 0.0 0.4
18:51 10.5 8.4 87 1026.5 13.6 SW 13.6 0.0 0.4
18:52 10.5 8.4 87 1026.6 12.1 SE 13.6 0.0 0.4
18:53 10.5 8.4 87 1026.4 10.7 SW 13.6 0.0 0.4
18:54 10.5 8.4 87 1026.4 9.8 SW 13.6 0.0 0.4
18:55 10.5 8.4 87 1026.6 9.8 S 13.6 0.0 0.4
18:56 10.5 8.4 87 1026.6 9.2 SW 13.6 0.0 0.4
18:57 10.5 8.4 87 1026.3 11.4 SW 13.6 0.0 0.4
18:58 10.5 8.4 87 1026.4 13.6 SW 13.6 0.0 0.4
18:59 10.6 8.5 87 1026.6 9.8 SW 13.6 0.0 0.4
19:00 10.6 8.5 87 1026.5 11.4 W 13.6 0.0 0.4
19:01 10.6 8.5 87 1026.5 11.4 W 13.6 0.0 0.4
19:02 10.6 8.5 87 1026.5 11.4 W 13.6 0.0 0.4
19:03 10.6 8.5 87 1026.4 11.4 W 13.6 0.0 0.4
19:05 10.6 8.5 87 1026.4 11.4 W 13.6 0.0 0.4
19:06 10.6 8.5 87 1026.4 11.4 W 13.6 0.0 0.4
19:07 10.6 8.5 87 1026.4 11.4 W 13.6 0.0 0.4
19:08 10.7 8.6 87 1026.4 12.1 SW 12.1 0.0 0.4
19:09 10.7 8.6 87 1026.4 12.1 SW 12.1 0.0 0.4
19:10 10.7 8.6 87 1026.3 13.0 SW 13.0 0.0 0.4
19:11 10.7 8.6 87 1026.5 13.0 S 13.0 0.0 0.4
19:12 10.7 8.6 87 1026.0 13.0 S 13.0 0.0 0.4
19:13 10.7 8.6 87 1026.4 14.5 SW 14.5 0.0 0.4
19:14 10.7 8.6 87 1026.4 14.5 SW 14.5 0.0 0.4
19:15 10.7 8.6 87 1026.5 14.5 SW 14.5 0.0 0.4
19:16 10.7 8.6 87 1026.5 14.5 SW 14.5 0.0 0.4
19:17 10.7 8.6 87 1026.5 13.0 SW 14.5 0.0 0.4
19:18 10.7 8.6 87 1026.4 9.8 SW 14.5 0.0 0.4
19:19 10.7 8.6 87 1026.5 13.6 SW 14.5 0.0 0.4
19:20 10.7 8.6 87 1026.3 13.0 S 14.5 0.0 0.4
19:21 10.7 8.6 87 1026.4 13.0 SW 14.5 0.0 0.4
19:22 10.7 8.6 87 1026.4 13.0 SW 14.5 0.0 0.4
19:23 10.7 8.6 87 1026.5 13.0 S 14.5 0.0 0.4
19:24 10.7 8.6 87 1026.5 12.1 S 14.5 0.0 0.4
19:25 10.7 8.6 87 1026.4 12.1 SW 14.5 0.0 0.4
19:26 10.7 8.6 87 1026.4 9.2 SW 14.5 0.0 0.4
19:27 10.7 8.6 87 1026.4 11.4 SW 13.6 0.0 0.4
19:29 10.7 8.6 87 1026.4 11.4 SW 13.0 0.0 0.4
19:30 10.7 8.6 87 1026.4 11.4 SW 13.0 0.0 0.4
19:31 10.7 8.6 87 1026.4 10.7 SW 13.0 0.0 0.4
19:32 10.7 8.6 87 1026.5 13.0 W 13.0 0.0 0.4
19:33 10.7 8.6 87 1026.7 13.0 SW 13.0 0.0 0.4
19:34 10.7 8.6 87 1026.7 13.0 SW 13.0 0.0 0.4
19:35 10.7 8.8 88 1026.5 13.6 SW 13.6 0.0 0.4
19:36 10.7 8.8 88 1026.6 13.6 SW 13.6 0.0 0.4
19:37 10.7 8.8 88 1026.5 9.8 S 13.6 0.0 0.4
19:38 10.7 8.8 88 1026.6 9.8 S 13.6 0.0 0.4
19:39 10.7 8.8 88 1026.6 13.0 SW 14.5 0.0 0.4
19:40 10.7 8.8 88 1026.4 13.6 WSW 14.5 0.0 0.4
19:41 10.7 8.8 88 1026.5 10.7 SW 14.5 0.0 0.4
19:43 10.7 8.8 88 1026.5 8.3 SW 14.5 0.0 0.4
19:44 10.7 8.8 88 1026.6 9.2 S 14.5 0.0 0.4
19:45 10.7 8.8 88 1026.5 12.1 SW 14.5 0.0 0.4
19:46 10.7 8.8 88 1026.6 10.7 S 14.5 0.0 0.4
19:47 10.7 8.8 88 1026.5 10.7 S 14.5 0.0 0.4
19:48 10.7 8.8 88 1026.4 11.4 SW 14.5 0.0 0.4
19:49 10.7 8.8 88 1026.4 11.4 SW 13.6 0.0 0.4
19:50 10.7 8.8 88 1026.6 9.8 SW 13.6 0.0 0.4
19:51 10.7 8.8 88 1026.5 10.7 SW 13.0 0.0 0.4
19:52 10.7 8.8 88 1026.5 12.1 S 13.0 0.0 0.4
19:53 10.7 8.8 88 1026.5 13.6 SW 13.6 0.0 0.4
19:54 10.7 8.8 88 1026.4 10.7 SW 13.6 0.0 0.4
19:55 10.7 8.8 88 1026.5 10.7 SSE 13.6 0.0 0.4
19:56 10.7 8.8 88 1026.4 11.4 SW 13.6 0.0 0.4
19:58 10.7 8.8 88 1026.5 10.7 SW 13.6 0.0 0.4
19:59 10.7 8.8 88 1026.5 9.8 SW 13.6 0.0 0.4
20:00 10.7 8.8 88 1026.5 9.8 SW 13.6 0.0 0.4
20:01 10.7 8.8 88 1026.5 10.7 SW 13.6 0.0 0.4
20:02 10.7 8.8 88 1026.3 9.2 SW 13.6 0.0 0.4
20:03 10.7 8.8 88 1026.5 10.7 S 11.4 0.0 0.4
20:04 10.7 8.8 88 1026.6 10.7 SW 11.4 0.0 0.4
20:05 10.7 8.8 88 1026.3 12.1 SW 12.1 0.0 0.4
20:06 10.7 8.8 88 1026.4 10.7 W 12.1 0.0 0.4
20:07 10.7 8.8 88 1026.5 11.4 SW 12.1 0.0 0.4
20:08 10.7 8.8 88 1026.4 9.8 W 12.1 0.0 0.4
20:09 10.7 8.8 88 1026.5 9.2 W 12.1 0.0 0.4
20:11 10.7 8.8 88 1026.2 9.8 SW 12.1 0.0 0.4
20:12 10.7 8.8 88 1026.1 9.8 SW 12.1 0.0 0.4
20:13 10.7 8.8 88 1026.2 8.3 S 12.1 0.0 0.4
20:14 10.7 8.8 88 1026.3 7.6 SW 12.1 0.0 0.4
20:15 10.7 8.8 88 1026.4 8.3 SW 11.4 0.0 0.4
20:16 10.7 8.8 88 1026.2 11.4 SW 11.4 0.0 0.4
20:17 10.7 8.8 88 1026.2 11.4 SW 11.4 0.0 0.4
20:18 10.7 8.8 88 1026.3 11.4 SW 11.4 0.0 0.4
20:19 10.7 8.8 88 1026.4 10.7 SW 11.4 0.0 0.4
20:20 10.8 8.9 88 1026.2 9.8 W 11.4 0.0 0.4
20:21 10.8 8.9 88 1026.3 6.9 SW 11.4 0.0 0.4
20:22 10.8 8.9 88 1026.5 8.3 SW 11.4 0.0 0.4
20:23 10.8 8.9 88 1026.3 12.1 SW 12.1 0.0 0.4
20:24 10.8 8.9 88 1026.5 10.7 SW 12.1 0.0 0.4
20:26 10.8 8.9 88 1026.3 10.7 S 13.0 0.0 0.4
20:27 10.8 8.9 88 1026.4 9.2 SW 13.0 0.0 0.4
20:28 10.8 8.9 88 1026.3 13.0 SW 13.0 0.0 0.4
20:29 10.8 8.9 88 1026.5 13.0 S 13.0 0.0 0.4
20:30 10.8 8.9 88 1026.2 9.8 SW 13.0 0.0 0.4
20:31 10.8 8.9 88 1026.2 11.4 W 13.0 0.0 0.4
20:32 10.8 8.9 88 1026.2 12.1 SW 13.0 0.0 0.4
20:33 10.8 8.9 88 1026.2 12.1 WSW 13.0 0.0 0.4
20:34 10.8 8.9 88 1026.3 12.1 WSW 13.0 0.0 0.4
20:35 10.8 8.9 88 1026.3 9.8 SW 13.0 0.0 0.4
20:36 10.8 8.9 88 1026.1 9.8 SW 13.0 0.0 0.4
20:37 10.8 8.9 88 1026.2 9.2 S 13.0 0.0 0.4
20:38 10.8 8.9 88 1026.2 9.8 SW 13.0 0.0 0.4
20:39 10.8 8.9 88 1026.1 11.4 W 13.0 0.0 0.4
20:41 10.8 8.9 88 1026.2 11.4 SW 12.1 0.0 0.4
20:42 10.8 8.9 88 1026.0 9.2 SW 12.1 0.0 0.4
20:43 10.8 8.9 88 1026.1 9.2 SW 12.1 0.0 0.4
20:44 10.8 8.9 88 1025.9 9.2 SW 11.4 0.0 0.4
20:45 10.8 8.9 88 1026.2 9.8 SW 11.4 0.0 0.4
20:46 10.8 8.9 88 1026.2 9.8 SW 11.4 0.0 0.4
20:47 10.8 8.9 88 1026.1 12.1 SW 12.1 0.0 0.4
20:48 10.8 8.9 88 1026.1 12.1 W 12.1 0.0 0.4
20:49 10.8 8.9 88 1026.1 13.0 SW 13.0 0.0 0.4
20:50 10.8 8.9 88 1026.3 9.8 SW 13.0 0.0 0.4
20:51 10.8 8.9 88 1026.1 8.3 SW 13.0 0.0 0.4
20:52 10.8 8.9 88 1026.2 8.3 SW 13.0 0.0 0.4
20:53 10.8 8.9 88 1026.2 10.7 SW 13.0 0.0 0.4
20:54 10.8 8.9 88 1026.1 13.0 SW 13.0 0.0 0.4
20:55 10.8 8.9 88 1026.1 9.2 SSW 13.0 0.0 0.4
20:57 10.8 8.9 88 1026.1 10.7 SW 13.0 0.0 0.4
20:58 10.8 8.9 88 1026.3 9.8 SSW 13.0 0.0 0.4
20:59 10.8 8.9 88 1026.1 9.8 SW 13.0 0.0 0.4
21:00 10.8 8.9 88 1026.2 8.3 SW 13.0 0.0 0.4
21:01 10.8 8.9 88 1026.0 8.3 SW 13.0 0.0 0.4
21:02 10.8 8.9 88 1026.0 8.3 SW 13.0 0.0 0.4
21:03 10.8 8.9 88 1026.1 8.3 SW 13.0 0.0 0.4
21:04 10.8 8.9 88 1026.1 8.3 SW 13.0 0.0 0.4
21:05 10.8 8.9 88 1026.1 8.3 SW 11.4 0.0 0.4
21:06 10.8 8.9 88 1026.1 8.3 SW 11.4 0.0 0.4
21:07 10.8 8.9 88 1026.0 12.1 SW 12.1 0.0 0.4
21:08 10.8 8.9 88 1026.0 12.1 SW 12.1 0.0 0.4
21:09 10.8 8.9 88 1026.2 8.3 SW 12.1 0.0 0.4
21:10 10.8 8.9 88 1026.0 10.7 W 12.1 0.0 0.4
21:12 10.8 8.9 88 1026.2 9.2 SW 12.1 0.0 0.4
21:13 10.8 8.9 88 1026.1 9.8 W 12.1 0.0 0.4
21:14 10.8 8.9 88 1026.1 9.8 SW 12.1 0.0 0.4
21:16 10.8 8.9 88 1025.9 13.6 SW 13.6 0.0 0.4
21:17 10.8 8.9 88 1026.2 12.1 SW 13.6 0.0 0.4
21:18 10.8 8.9 88 1026.1 12.1 SW 13.6 0.0 0.4
21:19 10.8 8.9 88 1026.1 10.7 SSW 13.6 0.0 0.4
21:20 10.8 8.9 88 1026.3 9.2 W 13.6 0.0 0.4
21:21 10.8 8.9 88 1026.1 13.6 SW 13.6 0.0 0.4
21:22 10.8 8.9 88 1026.1 13.6 SW 13.6 0.0 0.4
21:23 10.8 8.9 88 1026.1 9.8 S 13.6 0.0 0.4
21:24 10.8 8.9 88 1026.2 9.8 SW 13.6 0.0 0.4
21:25 10.8 8.9 88 1026.0 15.2 SW 15.2 0.0 0.4
21:26 10.9 9.0 88 1026.0 9.8 SW 15.2 0.0 0.4
21:27 10.9 9.0 88 1026.1 9.2 SW 15.2 0.0 0.4
21:28 10.9 9.0 88 1025.9 9.8 SW 15.2 0.0 0.4
21:29 10.9 9.0 88 1026.3 7.6 S 15.2 0.0 0.4
21:30 10.9 9.0 88 1026.3 11.4 SW 15.2 0.0 0.4
21:32 10.9 9.0 88 1026.1 9.2 SW 15.2 0.0 0.4
21:33 10.9 9.0 88 1026.1 7.6 S 15.2 0.0 0.4
21:34 10.9 9.0 88 1026.1 7.6 S 15.2 0.0 0.4
21:35 10.9 9.0 88 1026.1 6.9 SW 11.4 0.0 0.4
21:36 10.9 9.0 88 1026.3 11.4 SW 12.1 0.0 0.4
21:37 10.9 9.0 88 1026.3 11.4 SW 12.1 0.0 0.4
21:38 10.9 9.0 88 1026.3 11.4 SW 12.1 0.0 0.4
21:39 10.9 9.0 88 1026.4 8.3 SW 14.5 0.0 0.4
21:40 10.9 9.0 88 1026.2 7.6 W 14.5 0.0 0.4
21:41 10.9 9.0 88 1026.1 11.4 S 14.5 0.0 0.4
21:42 10.9 9.0 88 1026.2 11.4 SW 14.5 0.0 0.4
21:43 10.9 9.0 88 1026.0 11.4 SW 14.5 0.0 0.4
21:44 10.9 9.0 88 1026.2 9.2 SW 14.5 0.0 0.4
21:46 10.9 9.0 88 1026.1 10.7 W 14.5 0.0 0.4
21:47 10.9 9.0 88 1026.0 8.3 SW 14.5 0.0 0.4
21:48 10.9 9.0 88 1026.3 11.4 WSW 14.5 0.0 0.4
21:49 10.9 9.0 88 1026.0 10.7 SW 11.4 0.0 0.4
21:50 10.9 9.0 88 1026.3 12.1 SW 12.1 0.0 0.4
21:51 10.9 9.0 88 1026.2 9.8 S 12.1 0.0 0.4
21:52 10.9 9.0 88 1026.1 9.8 S 12.1 0.0 0.4
21:53 10.9 9.0 88 1026.1 11.4 SW 12.1 0.0 0.4
21:54 10.9 9.0 88 1026.1 11.4 W 12.1 0.0 0.4
21:55 10.9 9.0 88 1026.1 10.7 SW 12.1 0.0 0.4
21:56 10.9 9.0 88 1026.1 9.8 SW 12.1 0.0 0.4
21:57 10.9 9.0 88 1025.9 12.1 SW 12.1 0.0 0.4
21:58 10.9 9.0 88 1026.1 8.3 SW 12.1 0.0 0.4
21:59 10.9 9.0 88 1026.1 14.5 SW 14.5 0.0 0.4
22:01 11.0 9.1 88 1026.0 8.3 SW 14.5 0.0 0.4
22:02 11.0 9.1 88 1026.1 8.3 SW 14.5 0.0 0.4
22:03 11.0 9.1 88 1026.2 8.3 SW 14.5 0.0 0.4
22:04 11.0 9.1 88 1026.3 8.3 SW 14.5 0.0 0.4
22:05 11.0 9.1 88 1026.3 10.7 SSW 14.5 0.0 0.4
22:06 11.0 9.1 88 1026.3 10.7 SSW 14.5 0.0 0.4
22:07 11.0 9.1 88 1026.1 9.8 W 14.5 0.0 0.4
22:08 11.0 9.1 88 1025.9 9.8 SW 14.5 0.0 0.4
22:09 11.0 9.1 88 1026.1 6.9 WSW 14.5 0.0 0.4
22:10 11.0 9.1 88 1026.1 6.9 S 10.7 0.0 0.4
22:11 11.0 9.1 88 1026.1 9.2 SW 10.7 0.0 0.4
22:12 11.0 9.1 88 1025.9 9.2 SW 10.7 0.0 0.4
22:13 11.0 9.1 88 1026.0 9.8 W 10.7 0.0 0.4
22:16 11.0 9.1 88 1026.1 9.8 SW 9.8 0.0 0.4
22:17 11.0 9.1 88 1026.0 6.0 SW 9.8 0.0 0.4
22:18 11.0 9.1 88 1026.2 9.8 SW 9.8 0.0 0.4
22:19 11.0 9.1 88 1025.9 9.8 S 9.8 0.0 0.4
22:20 11.0 9.1 88 1026.1 8.3 SW 9.8 0.0 0.4
22:21 11.0 9.1 88 1026.1 8.3 SW 9.8 0.0 0.4
22:22 11.0 9.1 88 1025.8 9.2 SW 9.8 0.0 0.4
22:23 11.0 9.1 88 1026.3 9.2 SW 9.8 0.0 0.4
22:24 11.0 9.1 88 1026.0 13.6 W 13.6 0.0 0.4
22:25 11.0 9.1 88 1026.2 9.2 SW 13.6 0.0 0.4
22:26 11.0 9.1 88 1026.0 7.6 SW 13.6 0.0 0.4
22:27 11.0 9.1 88 1026.1 9.2 SW 13.6 0.0 0.4
22:28 11.0 9.1 88 1026.2 7.6 SW 13.6 0.0 0.4
22:30 11.0 9.1 88 1026.3 7.6 SW 13.6 0.0 0.4
22:31 11.0 9.1 88 1026.1 6.0 SW 13.6 0.0 0.4
22:32 11.0 9.1 88 1026.1 7.6 SSW 13.6 0.0 0.4
22:33 11.0 9.1 88 1026.2 7.6 S 13.6 0.0 0.4
22:34 11.0 9.1 88 1025.9 7.6 W 9.2 0.0 0.4
22:35 11.0 9.1 88 1025.9 7.6 W 9.2 0.0 0.4
22:36 11.0 9.1 88 1025.8 9.8 SW 9.8 0.0 0.4
22:37 11.0 9.1 88 1025.9 9.8 SW 9.8 0.0 0.4
22:38 11.0 9.1 88 1025.9 8.3 S 9.8 0.0 0.4
22:39 11.0 9.1 88 1025.9 7.6 SW 9.8 0.0 0.4
22:40 11.0 9.1 88 1025.7 8.3 W 9.8 0.0 0.4
22:41 11.0 9.1 88 1025.9 9.8 SW 9.8 0.0 0.4
22:42 11.0 9.1 88 1025.8 9.8 SW 9.8 0.0 0.4
22:44 11.0 9.1 88 1025.8 8.3 SW 9.8 0.0 0.4
22:45 11.0 9.1 88 1025.9 7.6 SW 9.8 0.0 0.4
22:46 11.0 9.1 88 1025.8 7.6 W 9.8 0.0 0.4
22:47 11.0 9.1 88 1025.8 6.9 WSW 9.8 0.0 0.4
22:48 11.0 9.1 88 1025.7 8.3 SW 9.8 0.0 0.4
22:49 11.0 9.1 88 1025.7 8.3 SW 9.8 0.0 0.4
22:50 11.0 9.1 88 1025.9 8.3 SW 9.8 0.0 0.4
22:51 11.0 9.1 88 1025.8 10.7 SW 15.9 0.8 0.4
22:52 11.0 9.1 88 1025.7 9.8 S 15.9 0.8 0.4
22:53 11.0 9.1 88 1025.8 9.8 SW 15.9 0.8 0.4
22:54 11.0 9.1 88 1025.7 9.8 SW 15.9 0.8 0.4
22:55 11.0 9.1 88 1025.9 9.8 W 15.9 0.8 0.4
22:56 11.0 9.1 88 1026.0 8.3 SW 15.9 0.0 0.4
22:58 11.0 9.1 88 1026.2 7.6 S 15.9 0.0 0.4
22:59 11.0 9.1 88 1026.0 9.2 SW 15.9 0.0 0.4
23:00 11.0 9.1 88 1025.9 7.6 SW 15.9 0.0 0.4
23:01 11.0 9.1 88 1025.8 7.6 SW 9.8 0.0 0.4
23:02 11.0 9.1 88 1025.9 7.6 SW 9.8 0.0 0.4
23:03 11.0 9.1 88 1025.8 7.6 SW 9.8 0.0 0.4
23:04 11.0 9.1 88 1025.8 7.6 SW 9.8 0.0 0.4
23:05 11.0 9.1 88 1025.8 7.6 SW 9.2 0.0 0.4
23:06 11.0 9.1 88 1025.8 7.6 SW 9.2 0.0 0.4
23:07 11.1 9.2 88 1026.0 8.3 SW 9.2 0.0 0.4
23:08 11.1 9.2 88 1026.0 9.2 SW 9.2 0.0 0.4
23:09 11.1 9.2 88 1025.9 9.8 SW 9.8 0.0 0.4
23:10 11.1 9.2 88 1026.0 8.3 SW 9.8 0.0 0.4
23:12 11.1 9.2 88 1025.9 8.3 SW 9.8 0.0 0.4
23:13 11.1 9.2 88 1025.8 8.3 SW 9.8 0.0 0.4
23:14 11.1 9.2 88 1025.9 8.3 S 9.8 0.0 0.4
23:16 11.1 9.2 88 1026.0 6.9 SW 9.8 0.0 0.4
23:17 11.1 9.2 88 1026.0 9.8 W 9.8 0.0 0.4
23:18 11.1 9.2 88 1025.9 9.8 SSW 9.8 0.0 0.4
23:20 11.1 9.2 88 1025.7 11.4 SW 11.4 0.0 0.4
23:21 11.1 9.2 88 1026.0 11.4 W 11.4 0.0 0.4
23:22 11.1 9.2 88 1025.9 9.2 S 11.4 0.0 0.4
23:23 11.1 9.2 88 1025.9 8.3 W 11.4 0.0 0.4
23:24 11.1 9.2 88 1025.9 11.4 W 11.4 0.0 0.4
23:25 11.1 9.2 88 1025.9 11.4 W 11.4 0.0 0.4
23:26 11.1 9.2 88 1026.0 11.4 SW 11.4 0.0 0.4
23:27 11.1 9.2 88 1025.9 9.8 SW 11.4 0.0 0.4
23:28 11.1 9.2 88 1025.6 10.7 S 11.4 0.0 0.4
23:29 11.1 9.2 88 1025.9 10.7 SSW 11.4 0.0 0.4
23:30 11.1 9.2 88 1025.8 10.7 SW 11.4 0.0 0.4
23:31 11.1 9.2 88 1025.9 13.0 W 13.0 0.0 0.4
23:32 11.1 9.2 88 1025.8 9.2 WNW 13.0 0.0 0.4
23:34 11.1 9.2 88 1025.8 9.8 SE 13.0 0.0 0.4
23:35 11.1 9.2 88 1025.6 11.4 SW 13.0 0.0 0.4
23:36 11.1 9.2 88 1025.8 9.2 SW 13.0 0.0 0.4
23:37 11.1 9.2 88 1025.8 11.4 SW 13.0 0.0 0.4
23:38 11.1 9.2 88 1025.7 9.8 WSW 13.0 0.0 0.4
23:39 11.1 9.2 88 1026.0 8.3 SW 13.0 0.0 0.4
23:40 11.1 9.2 88 1025.7 8.3 SW 13.0 0.0 0.4
23:41 11.1 9.2 88 1025.8 10.7 SW 13.0 0.0 0.4
23:42 11.1 9.2 88 1025.7 8.3 SW 11.4 0.0 0.4
23:43 11.1 9.2 88 1025.9 8.3 SW 11.4 0.0 0.4
23:44 11.1 9.2 88 1025.9 10.7 W 11.4 0.0 0.4
23:45 11.1 9.2 88 1025.9 9.2 W 11.4 0.0 0.4
23:46 11.1 9.2 88 1025.6 9.2 SW 11.4 0.0 0.4
23:47 11.1 9.2 88 1025.8 10.7 SW 11.4 0.0 0.4
23:49 11.1 9.2 88 1025.7 10.7 SW 10.7 0.0 0.4
23:50 11.1 9.2 88 1025.8 8.3 SW 10.7 0.0 0.4
23:51 11.1 9.2 88 1025.7 7.6 SW 10.7 0.0 0.4
23:52 11.1 9.2 88 1025.8 11.4 SW 11.4 0.0 0.4
23:53 11.1 9.2 88 1025.7 9.8 S 11.4 0.0 0.4
23:54 11.1 9.2 88 1025.7 9.8 S 11.4 0.0 0.4
23:55 11.1 9.2 88 1025.7 9.8 SW 11.4 0.0 0.4
23:56 11.1 9.2 88 1025.8 7.6 SW 11.4 0.0 0.4
23:57 11.1 9.2 88 1025.8 7.6 SW 11.4 0.8 0.5
23:58 11.1 9.2 88 1025.8 7.6 SW 11.4 0.8 0.5
23:59 11.1 9.2 88 1025.8 7.6 SW 11.4 0.8 0.5

 

 

UK - WEATHER STATION TOPSITES - UK World Weather Websites

Copyright © Carnkie Weather 2009 - 2020.